<?xml version="1.0" encoding="UTF-8" standalone="no" ?>
<gpx xmlns="http://www.topografix.com/GPX/1/1" xmlns:xsi="http://www.w3.org/2001/XMLSchema-instance" xsi:schemaLocation="http://www.topografix.com/GPX/1/1 http://www.topografix.com/GPX/1/1/gpx.xsd" version="1.1" creator="VisuGPX - https://www.visugpx.com">
  <metadata>
    <name>Défilé d\'Argensol</name>
    <desc><![CDATA[Jolie promenade familiale possible à pieds ou à VTT. Que du DFCI.]]></desc>
  </metadata>
  <trk>
    <name><![CDATA[18-MARS-12 06:10:01 PM]]></name>
    <trkseg>
      <trkpt lat="44.19908" lon="4.24792">
        <ele>65.03</ele>
        <time>2012-03-18T15:05:05Z</time>
      </trkpt>
      <trkpt lat="44.19914" lon="4.24795">
        <ele>66.95</ele>
        <time>2012-03-18T15:05:11Z</time>
      </trkpt>
      <trkpt lat="44.19914" lon="4.24795">
        <ele>70.31</ele>
        <time>2012-03-18T15:05:12Z</time>
      </trkpt>
      <trkpt lat="44.19913" lon="4.24795">
        <ele>73.2</ele>
        <time>2012-03-18T15:05:14Z</time>
      </trkpt>
      <trkpt lat="44.19914" lon="4.24795">
        <ele>78</ele>
        <time>2012-03-18T15:05:17Z</time>
      </trkpt>
      <trkpt lat="44.19915" lon="4.24797">
        <ele>81.37</ele>
        <time>2012-03-18T15:05:19Z</time>
      </trkpt>
      <trkpt lat="44.19915" lon="4.24797">
        <ele>85.21</ele>
        <time>2012-03-18T15:05:23Z</time>
      </trkpt>
      <trkpt lat="44.19916" lon="4.24797">
        <ele>89.06</ele>
        <time>2012-03-18T15:05:26Z</time>
      </trkpt>
      <trkpt lat="44.19916" lon="4.24796">
        <ele>92.9</ele>
        <time>2012-03-18T15:05:30Z</time>
      </trkpt>
      <trkpt lat="44.19914" lon="4.24799">
        <ele>97.23</ele>
        <time>2012-03-18T15:05:34Z</time>
      </trkpt>
      <trkpt lat="44.19912" lon="4.24803">
        <ele>102.04</ele>
        <time>2012-03-18T15:05:38Z</time>
      </trkpt>
      <trkpt lat="44.19907" lon="4.2481">
        <ele>104.44</ele>
        <time>2012-03-18T15:05:44Z</time>
      </trkpt>
      <trkpt lat="44.19906" lon="4.24812">
        <ele>105.88</ele>
        <time>2012-03-18T15:05:46Z</time>
      </trkpt>
      <trkpt lat="44.199" lon="4.24822">
        <ele>109.73</ele>
        <time>2012-03-18T15:05:53Z</time>
      </trkpt>
      <trkpt lat="44.199" lon="4.24823">
        <ele>109.73</ele>
        <time>2012-03-18T15:05:54Z</time>
      </trkpt>
      <trkpt lat="44.19892" lon="4.24832">
        <ele>113.57</ele>
        <time>2012-03-18T15:06:03Z</time>
      </trkpt>
      <trkpt lat="44.19881" lon="4.24847">
        <ele>115.98</ele>
        <time>2012-03-18T15:06:14Z</time>
      </trkpt>
      <trkpt lat="44.19874" lon="4.24859">
        <ele>117.9</ele>
        <time>2012-03-18T15:06:24Z</time>
      </trkpt>
      <trkpt lat="44.19863" lon="4.2488">
        <ele>119.82</ele>
        <time>2012-03-18T15:06:38Z</time>
      </trkpt>
      <trkpt lat="44.19853" lon="4.24902">
        <ele>121.26</ele>
        <time>2012-03-18T15:06:54Z</time>
      </trkpt>
      <trkpt lat="44.19851" lon="4.24905">
        <ele>120.3</ele>
        <time>2012-03-18T15:07:09Z</time>
      </trkpt>
      <trkpt lat="44.1985" lon="4.24907">
        <ele>120.78</ele>
        <time>2012-03-18T15:07:10Z</time>
      </trkpt>
      <trkpt lat="44.19848" lon="4.24917">
        <ele>121.26</ele>
        <time>2012-03-18T15:07:19Z</time>
      </trkpt>
      <trkpt lat="44.19843" lon="4.24937">
        <ele>121.74</ele>
        <time>2012-03-18T15:07:31Z</time>
      </trkpt>
      <trkpt lat="44.19837" lon="4.24962">
        <ele>122.22</ele>
        <time>2012-03-18T15:07:45Z</time>
      </trkpt>
      <trkpt lat="44.19837" lon="4.24966">
        <ele>121.74</ele>
        <time>2012-03-18T15:07:48Z</time>
      </trkpt>
      <trkpt lat="44.19836" lon="4.24969">
        <ele>122.22</ele>
        <time>2012-03-18T15:07:50Z</time>
      </trkpt>
      <trkpt lat="44.19831" lon="4.24991">
        <ele>122.22</ele>
        <time>2012-03-18T15:08:05Z</time>
      </trkpt>
      <trkpt lat="44.19823" lon="4.25011">
        <ele>122.22</ele>
        <time>2012-03-18T15:08:18Z</time>
      </trkpt>
      <trkpt lat="44.19811" lon="4.2503">
        <ele>122.71</ele>
        <time>2012-03-18T15:08:33Z</time>
      </trkpt>
      <trkpt lat="44.19799" lon="4.25054">
        <ele>123.19</ele>
        <time>2012-03-18T15:08:48Z</time>
      </trkpt>
      <trkpt lat="44.19796" lon="4.25057">
        <ele>124.15</ele>
        <time>2012-03-18T15:08:51Z</time>
      </trkpt>
      <trkpt lat="44.19783" lon="4.25071">
        <ele>125.11</ele>
        <time>2012-03-18T15:09:04Z</time>
      </trkpt>
      <trkpt lat="44.19771" lon="4.25074">
        <ele>125.59</ele>
        <time>2012-03-18T15:09:13Z</time>
      </trkpt>
      <trkpt lat="44.19766" lon="4.25074">
        <ele>125.59</ele>
        <time>2012-03-18T15:09:16Z</time>
      </trkpt>
      <trkpt lat="44.19755" lon="4.25077">
        <ele>125.11</ele>
        <time>2012-03-18T15:09:26Z</time>
      </trkpt>
      <trkpt lat="44.19753" lon="4.25077">
        <ele>125.59</ele>
        <time>2012-03-18T15:09:27Z</time>
      </trkpt>
      <trkpt lat="44.19735" lon="4.25082">
        <ele>125.59</ele>
        <time>2012-03-18T15:09:40Z</time>
      </trkpt>
      <trkpt lat="44.19725" lon="4.25091">
        <ele>126.07</ele>
        <time>2012-03-18T15:09:53Z</time>
      </trkpt>
      <trkpt lat="44.19711" lon="4.25105">
        <ele>126.07</ele>
        <time>2012-03-18T15:10:05Z</time>
      </trkpt>
      <trkpt lat="44.19705" lon="4.25111">
        <ele>126.07</ele>
        <time>2012-03-18T15:10:11Z</time>
      </trkpt>
      <trkpt lat="44.197" lon="4.25116">
        <ele>126.55</ele>
        <time>2012-03-18T15:10:15Z</time>
      </trkpt>
      <trkpt lat="44.19696" lon="4.25119">
        <ele>126.55</ele>
        <time>2012-03-18T15:10:18Z</time>
      </trkpt>
      <trkpt lat="44.19693" lon="4.25119">
        <ele>127.99</ele>
        <time>2012-03-18T15:10:20Z</time>
      </trkpt>
      <trkpt lat="44.19693" lon="4.25119">
        <ele>126.55</ele>
        <time>2012-03-18T15:10:21Z</time>
      </trkpt>
      <trkpt lat="44.19686" lon="4.25125">
        <ele>122.71</ele>
        <time>2012-03-18T15:10:24Z</time>
      </trkpt>
      <trkpt lat="44.19685" lon="4.25126">
        <ele>122.71</ele>
        <time>2012-03-18T15:10:25Z</time>
      </trkpt>
      <trkpt lat="44.19683" lon="4.25127">
        <ele>123.67</ele>
        <time>2012-03-18T15:10:26Z</time>
      </trkpt>
      <trkpt lat="44.19682" lon="4.25128">
        <ele>127.03</ele>
        <time>2012-03-18T15:10:27Z</time>
      </trkpt>
      <trkpt lat="44.19681" lon="4.25129">
        <ele>128.95</ele>
        <time>2012-03-18T15:10:28Z</time>
      </trkpt>
      <trkpt lat="44.19672" lon="4.25136">
        <ele>125.59</ele>
        <time>2012-03-18T15:10:34Z</time>
      </trkpt>
      <trkpt lat="44.19667" lon="4.25141">
        <ele>127.03</ele>
        <time>2012-03-18T15:10:39Z</time>
      </trkpt>
      <trkpt lat="44.19652" lon="4.25158">
        <ele>127.51</ele>
        <time>2012-03-18T15:10:50Z</time>
      </trkpt>
      <trkpt lat="44.19651" lon="4.25159">
        <ele>127.03</ele>
        <time>2012-03-18T15:10:52Z</time>
      </trkpt>
      <trkpt lat="44.19647" lon="4.25186">
        <ele>128.95</ele>
        <time>2012-03-18T15:11:07Z</time>
      </trkpt>
      <trkpt lat="44.19647" lon="4.25187">
        <ele>128.47</ele>
        <time>2012-03-18T15:11:08Z</time>
      </trkpt>
      <trkpt lat="44.19646" lon="4.25193">
        <ele>127.99</ele>
        <time>2012-03-18T15:11:11Z</time>
      </trkpt>
      <trkpt lat="44.19645" lon="4.25199">
        <ele>128.47</ele>
        <time>2012-03-18T15:11:15Z</time>
      </trkpt>
      <trkpt lat="44.19639" lon="4.25207">
        <ele>128.47</ele>
        <time>2012-03-18T15:11:22Z</time>
      </trkpt>
      <trkpt lat="44.19636" lon="4.25216">
        <ele>128.95</ele>
        <time>2012-03-18T15:11:29Z</time>
      </trkpt>
      <trkpt lat="44.19631" lon="4.25236">
        <ele>128.95</ele>
        <time>2012-03-18T15:11:42Z</time>
      </trkpt>
      <trkpt lat="44.1963" lon="4.25259">
        <ele>128.47</ele>
        <time>2012-03-18T15:11:57Z</time>
      </trkpt>
      <trkpt lat="44.19628" lon="4.25265">
        <ele>128.95</ele>
        <time>2012-03-18T15:12:00Z</time>
      </trkpt>
      <trkpt lat="44.19625" lon="4.25273">
        <ele>128.95</ele>
        <time>2012-03-18T15:12:04Z</time>
      </trkpt>
      <trkpt lat="44.19619" lon="4.25296">
        <ele>129.92</ele>
        <time>2012-03-18T15:12:17Z</time>
      </trkpt>
      <trkpt lat="44.1961" lon="4.25314">
        <ele>130.4</ele>
        <time>2012-03-18T15:12:30Z</time>
      </trkpt>
      <trkpt lat="44.19609" lon="4.25317">
        <ele>130.4</ele>
        <time>2012-03-18T15:12:32Z</time>
      </trkpt>
      <trkpt lat="44.19603" lon="4.25328">
        <ele>130.4</ele>
        <time>2012-03-18T15:12:38Z</time>
      </trkpt>
      <trkpt lat="44.19598" lon="4.25339">
        <ele>130.4</ele>
        <time>2012-03-18T15:12:49Z</time>
      </trkpt>
      <trkpt lat="44.19587" lon="4.25357">
        <ele>131.36</ele>
        <time>2012-03-18T15:13:01Z</time>
      </trkpt>
      <trkpt lat="44.19577" lon="4.25376">
        <ele>131.84</ele>
        <time>2012-03-18T15:13:13Z</time>
      </trkpt>
      <trkpt lat="44.19575" lon="4.2538">
        <ele>132.32</ele>
        <time>2012-03-18T15:13:16Z</time>
      </trkpt>
      <trkpt lat="44.1957" lon="4.25389">
        <ele>132.8</ele>
        <time>2012-03-18T15:13:22Z</time>
      </trkpt>
      <trkpt lat="44.19566" lon="4.25397">
        <ele>133.28</ele>
        <time>2012-03-18T15:13:28Z</time>
      </trkpt>
      <trkpt lat="44.19564" lon="4.254">
        <ele>134.24</ele>
        <time>2012-03-18T15:13:30Z</time>
      </trkpt>
      <trkpt lat="44.19562" lon="4.25404">
        <ele>134.24</ele>
        <time>2012-03-18T15:13:33Z</time>
      </trkpt>
      <trkpt lat="44.19549" lon="4.25424">
        <ele>134.24</ele>
        <time>2012-03-18T15:13:49Z</time>
      </trkpt>
      <trkpt lat="44.19536" lon="4.2544">
        <ele>133.28</ele>
        <time>2012-03-18T15:14:02Z</time>
      </trkpt>
      <trkpt lat="44.19522" lon="4.25449">
        <ele>133.28</ele>
        <time>2012-03-18T15:14:14Z</time>
      </trkpt>
      <trkpt lat="44.19514" lon="4.25452">
        <ele>132.8</ele>
        <time>2012-03-18T15:14:19Z</time>
      </trkpt>
      <trkpt lat="44.195" lon="4.25462">
        <ele>132.8</ele>
        <time>2012-03-18T15:14:31Z</time>
      </trkpt>
      <trkpt lat="44.19482" lon="4.2547">
        <ele>133.76</ele>
        <time>2012-03-18T15:14:45Z</time>
      </trkpt>
      <trkpt lat="44.19466" lon="4.25477">
        <ele>133.76</ele>
        <time>2012-03-18T15:14:59Z</time>
      </trkpt>
      <trkpt lat="44.19456" lon="4.25485">
        <ele>133.28</ele>
        <time>2012-03-18T15:15:09Z</time>
      </trkpt>
      <trkpt lat="44.19435" lon="4.25487">
        <ele>133.28</ele>
        <time>2012-03-18T15:15:23Z</time>
      </trkpt>
      <trkpt lat="44.19417" lon="4.25486">
        <ele>133.76</ele>
        <time>2012-03-18T15:15:37Z</time>
      </trkpt>
      <trkpt lat="44.19395" lon="4.25487">
        <ele>134.24</ele>
        <time>2012-03-18T15:15:53Z</time>
      </trkpt>
      <trkpt lat="44.19384" lon="4.2549">
        <ele>134.72</ele>
        <time>2012-03-18T15:16:02Z</time>
      </trkpt>
      <trkpt lat="44.19373" lon="4.25496">
        <ele>135.2</ele>
        <time>2012-03-18T15:16:10Z</time>
      </trkpt>
      <trkpt lat="44.19361" lon="4.25501">
        <ele>136.16</ele>
        <time>2012-03-18T15:16:20Z</time>
      </trkpt>
      <trkpt lat="44.19345" lon="4.25507">
        <ele>136.64</ele>
        <time>2012-03-18T15:16:32Z</time>
      </trkpt>
      <trkpt lat="44.1934" lon="4.2551">
        <ele>137.13</ele>
        <time>2012-03-18T15:16:37Z</time>
      </trkpt>
      <trkpt lat="44.19321" lon="4.25526">
        <ele>137.13</ele>
        <time>2012-03-18T15:16:53Z</time>
      </trkpt>
      <trkpt lat="44.19319" lon="4.25529">
        <ele>136.64</ele>
        <time>2012-03-18T15:16:55Z</time>
      </trkpt>
      <trkpt lat="44.19305" lon="4.25543">
        <ele>137.61</ele>
        <time>2012-03-18T15:17:10Z</time>
      </trkpt>
      <trkpt lat="44.1929" lon="4.25556">
        <ele>139.05</ele>
        <time>2012-03-18T15:17:22Z</time>
      </trkpt>
      <trkpt lat="44.19288" lon="4.25558">
        <ele>138.57</ele>
        <time>2012-03-18T15:17:24Z</time>
      </trkpt>
      <trkpt lat="44.19277" lon="4.25567">
        <ele>138.57</ele>
        <time>2012-03-18T15:17:34Z</time>
      </trkpt>
      <trkpt lat="44.19275" lon="4.25573">
        <ele>139.05</ele>
        <time>2012-03-18T15:17:38Z</time>
      </trkpt>
      <trkpt lat="44.19263" lon="4.25598">
        <ele>140.49</ele>
        <time>2012-03-18T15:17:55Z</time>
      </trkpt>
      <trkpt lat="44.19261" lon="4.25601">
        <ele>139.53</ele>
        <time>2012-03-18T15:17:57Z</time>
      </trkpt>
      <trkpt lat="44.19252" lon="4.25619">
        <ele>139.53</ele>
        <time>2012-03-18T15:18:08Z</time>
      </trkpt>
      <trkpt lat="44.1925" lon="4.25632">
        <ele>140.97</ele>
        <time>2012-03-18T15:18:15Z</time>
      </trkpt>
      <trkpt lat="44.19241" lon="4.25655">
        <ele>141.45</ele>
        <time>2012-03-18T15:18:29Z</time>
      </trkpt>
      <trkpt lat="44.19236" lon="4.25659">
        <ele>140.97</ele>
        <time>2012-03-18T15:18:34Z</time>
      </trkpt>
      <trkpt lat="44.19224" lon="4.25662">
        <ele>140.97</ele>
        <time>2012-03-18T15:18:43Z</time>
      </trkpt>
      <trkpt lat="44.19221" lon="4.25664">
        <ele>140.97</ele>
        <time>2012-03-18T15:18:45Z</time>
      </trkpt>
      <trkpt lat="44.19209" lon="4.25676">
        <ele>140.97</ele>
        <time>2012-03-18T15:18:56Z</time>
      </trkpt>
      <trkpt lat="44.19199" lon="4.25688">
        <ele>140.97</ele>
        <time>2012-03-18T15:19:06Z</time>
      </trkpt>
      <trkpt lat="44.19193" lon="4.25703">
        <ele>140.49</ele>
        <time>2012-03-18T15:19:14Z</time>
      </trkpt>
      <trkpt lat="44.19188" lon="4.25714">
        <ele>140.97</ele>
        <time>2012-03-18T15:19:21Z</time>
      </trkpt>
      <trkpt lat="44.19181" lon="4.25743">
        <ele>140.97</ele>
        <time>2012-03-18T15:19:37Z</time>
      </trkpt>
      <trkpt lat="44.19172" lon="4.25771">
        <ele>141.45</ele>
        <time>2012-03-18T15:19:53Z</time>
      </trkpt>
      <trkpt lat="44.19169" lon="4.25776">
        <ele>141.45</ele>
        <time>2012-03-18T15:19:58Z</time>
      </trkpt>
      <trkpt lat="44.19167" lon="4.25782">
        <ele>142.41</ele>
        <time>2012-03-18T15:20:14Z</time>
      </trkpt>
      <trkpt lat="44.19167" lon="4.25782">
        <ele>141.45</ele>
        <time>2012-03-18T15:20:43Z</time>
      </trkpt>
      <trkpt lat="44.19165" lon="4.25784">
        <ele>141.45</ele>
        <time>2012-03-18T15:20:53Z</time>
      </trkpt>
      <trkpt lat="44.19161" lon="4.25798">
        <ele>141.93</ele>
        <time>2012-03-18T15:21:01Z</time>
      </trkpt>
      <trkpt lat="44.19157" lon="4.25812">
        <ele>141.93</ele>
        <time>2012-03-18T15:21:16Z</time>
      </trkpt>
      <trkpt lat="44.19157" lon="4.25811">
        <ele>141.93</ele>
        <time>2012-03-18T15:21:35Z</time>
      </trkpt>
      <trkpt lat="44.19157" lon="4.25811">
        <ele>142.41</ele>
        <time>2012-03-18T15:21:50Z</time>
      </trkpt>
      <trkpt lat="44.19156" lon="4.25813">
        <ele>142.41</ele>
        <time>2012-03-18T15:21:52Z</time>
      </trkpt>
      <trkpt lat="44.19149" lon="4.25841">
        <ele>142.41</ele>
        <time>2012-03-18T15:22:07Z</time>
      </trkpt>
      <trkpt lat="44.19144" lon="4.25864">
        <ele>143.37</ele>
        <time>2012-03-18T15:22:19Z</time>
      </trkpt>
      <trkpt lat="44.19143" lon="4.2587">
        <ele>142.89</ele>
        <time>2012-03-18T15:22:22Z</time>
      </trkpt>
      <trkpt lat="44.19142" lon="4.25877">
        <ele>143.37</ele>
        <time>2012-03-18T15:22:26Z</time>
      </trkpt>
      <trkpt lat="44.19138" lon="4.2589">
        <ele>142.89</ele>
        <time>2012-03-18T15:22:34Z</time>
      </trkpt>
      <trkpt lat="44.19129" lon="4.25911">
        <ele>142.89</ele>
        <time>2012-03-18T15:22:46Z</time>
      </trkpt>
      <trkpt lat="44.19128" lon="4.25936">
        <ele>143.37</ele>
        <time>2012-03-18T15:22:59Z</time>
      </trkpt>
      <trkpt lat="44.19122" lon="4.25959">
        <ele>144.34</ele>
        <time>2012-03-18T15:23:11Z</time>
      </trkpt>
      <trkpt lat="44.19118" lon="4.25978">
        <ele>143.85</ele>
        <time>2012-03-18T15:23:21Z</time>
      </trkpt>
      <trkpt lat="44.19112" lon="4.26">
        <ele>145.3</ele>
        <time>2012-03-18T15:23:34Z</time>
      </trkpt>
      <trkpt lat="44.19104" lon="4.26025">
        <ele>144.82</ele>
        <time>2012-03-18T15:23:48Z</time>
      </trkpt>
      <trkpt lat="44.19096" lon="4.26049">
        <ele>145.3</ele>
        <time>2012-03-18T15:24:03Z</time>
      </trkpt>
      <trkpt lat="44.19094" lon="4.26063">
        <ele>145.3</ele>
        <time>2012-03-18T15:24:11Z</time>
      </trkpt>
      <trkpt lat="44.19086" lon="4.26084">
        <ele>146.26</ele>
        <time>2012-03-18T15:24:25Z</time>
      </trkpt>
      <trkpt lat="44.19082" lon="4.26093">
        <ele>146.26</ele>
        <time>2012-03-18T15:24:31Z</time>
      </trkpt>
      <trkpt lat="44.1908" lon="4.26098">
        <ele>145.78</ele>
        <time>2012-03-18T15:24:35Z</time>
      </trkpt>
      <trkpt lat="44.19078" lon="4.26103">
        <ele>146.74</ele>
        <time>2012-03-18T15:24:39Z</time>
      </trkpt>
      <trkpt lat="44.19076" lon="4.26108">
        <ele>146.26</ele>
        <time>2012-03-18T15:24:42Z</time>
      </trkpt>
      <trkpt lat="44.1907" lon="4.26129">
        <ele>146.74</ele>
        <time>2012-03-18T15:24:55Z</time>
      </trkpt>
      <trkpt lat="44.19065" lon="4.26148">
        <ele>146.74</ele>
        <time>2012-03-18T15:25:07Z</time>
      </trkpt>
      <trkpt lat="44.19061" lon="4.26162">
        <ele>147.22</ele>
        <time>2012-03-18T15:25:15Z</time>
      </trkpt>
      <trkpt lat="44.19058" lon="4.26174">
        <ele>147.22</ele>
        <time>2012-03-18T15:25:23Z</time>
      </trkpt>
      <trkpt lat="44.19054" lon="4.26187">
        <ele>147.22</ele>
        <time>2012-03-18T15:25:30Z</time>
      </trkpt>
      <trkpt lat="44.19052" lon="4.26195">
        <ele>147.7</ele>
        <time>2012-03-18T15:25:35Z</time>
      </trkpt>
      <trkpt lat="44.19047" lon="4.26206">
        <ele>147.22</ele>
        <time>2012-03-18T15:25:42Z</time>
      </trkpt>
      <trkpt lat="44.19044" lon="4.26212">
        <ele>146.74</ele>
        <time>2012-03-18T15:25:46Z</time>
      </trkpt>
      <trkpt lat="44.19038" lon="4.26226">
        <ele>147.22</ele>
        <time>2012-03-18T15:25:56Z</time>
      </trkpt>
      <trkpt lat="44.19029" lon="4.26246">
        <ele>147.7</ele>
        <time>2012-03-18T15:26:09Z</time>
      </trkpt>
      <trkpt lat="44.19019" lon="4.26261">
        <ele>148.18</ele>
        <time>2012-03-18T15:26:21Z</time>
      </trkpt>
      <trkpt lat="44.19018" lon="4.26263">
        <ele>148.18</ele>
        <time>2012-03-18T15:26:22Z</time>
      </trkpt>
      <trkpt lat="44.19013" lon="4.2627">
        <ele>148.18</ele>
        <time>2012-03-18T15:26:28Z</time>
      </trkpt>
      <trkpt lat="44.19009" lon="4.2628">
        <ele>148.18</ele>
        <time>2012-03-18T15:26:34Z</time>
      </trkpt>
      <trkpt lat="44.18999" lon="4.26297">
        <ele>148.18</ele>
        <time>2012-03-18T15:26:48Z</time>
      </trkpt>
      <trkpt lat="44.18986" lon="4.26315">
        <ele>148.66</ele>
        <time>2012-03-18T15:27:01Z</time>
      </trkpt>
      <trkpt lat="44.18983" lon="4.26322">
        <ele>149.14</ele>
        <time>2012-03-18T15:27:07Z</time>
      </trkpt>
      <trkpt lat="44.18975" lon="4.26336">
        <ele>149.14</ele>
        <time>2012-03-18T15:27:18Z</time>
      </trkpt>
      <trkpt lat="44.18965" lon="4.26354">
        <ele>149.62</ele>
        <time>2012-03-18T15:27:31Z</time>
      </trkpt>
      <trkpt lat="44.18963" lon="4.26356">
        <ele>149.62</ele>
        <time>2012-03-18T15:27:33Z</time>
      </trkpt>
      <trkpt lat="44.18961" lon="4.26359">
        <ele>149.62</ele>
        <time>2012-03-18T15:27:35Z</time>
      </trkpt>
      <trkpt lat="44.18947" lon="4.2638">
        <ele>150.1</ele>
        <time>2012-03-18T15:27:51Z</time>
      </trkpt>
      <trkpt lat="44.18939" lon="4.26393">
        <ele>150.58</ele>
        <time>2012-03-18T15:28:02Z</time>
      </trkpt>
      <trkpt lat="44.18936" lon="4.26401">
        <ele>149.62</ele>
        <time>2012-03-18T15:28:08Z</time>
      </trkpt>
      <trkpt lat="44.18926" lon="4.2642">
        <ele>151.06</ele>
        <time>2012-03-18T15:28:21Z</time>
      </trkpt>
      <trkpt lat="44.18923" lon="4.26424">
        <ele>151.54</ele>
        <time>2012-03-18T15:28:24Z</time>
      </trkpt>
      <trkpt lat="44.18912" lon="4.26442">
        <ele>151.06</ele>
        <time>2012-03-18T15:28:37Z</time>
      </trkpt>
      <trkpt lat="44.1891" lon="4.26449">
        <ele>151.54</ele>
        <time>2012-03-18T15:28:43Z</time>
      </trkpt>
      <trkpt lat="44.18908" lon="4.26454">
        <ele>150.58</ele>
        <time>2012-03-18T15:28:46Z</time>
      </trkpt>
      <trkpt lat="44.18906" lon="4.2646">
        <ele>152.03</ele>
        <time>2012-03-18T15:28:50Z</time>
      </trkpt>
      <trkpt lat="44.18905" lon="4.26463">
        <ele>151.54</ele>
        <time>2012-03-18T15:28:52Z</time>
      </trkpt>
      <trkpt lat="44.18904" lon="4.26467">
        <ele>152.03</ele>
        <time>2012-03-18T15:28:55Z</time>
      </trkpt>
      <trkpt lat="44.18896" lon="4.26483">
        <ele>151.54</ele>
        <time>2012-03-18T15:29:06Z</time>
      </trkpt>
      <trkpt lat="44.18887" lon="4.26495">
        <ele>151.54</ele>
        <time>2012-03-18T15:29:19Z</time>
      </trkpt>
      <trkpt lat="44.18882" lon="4.265">
        <ele>152.03</ele>
        <time>2012-03-18T15:29:35Z</time>
      </trkpt>
      <trkpt lat="44.18881" lon="4.26501">
        <ele>152.03</ele>
        <time>2012-03-18T15:29:50Z</time>
      </trkpt>
      <trkpt lat="44.18876" lon="4.26497">
        <ele>152.03</ele>
        <time>2012-03-18T15:30:17Z</time>
      </trkpt>
      <trkpt lat="44.18874" lon="4.26495">
        <ele>152.03</ele>
        <time>2012-03-18T15:30:33Z</time>
      </trkpt>
      <trkpt lat="44.18874" lon="4.26495">
        <ele>152.03</ele>
        <time>2012-03-18T15:30:52Z</time>
      </trkpt>
      <trkpt lat="44.18874" lon="4.26495">
        <ele>152.03</ele>
        <time>2012-03-18T15:31:15Z</time>
      </trkpt>
      <trkpt lat="44.18874" lon="4.26495">
        <ele>152.51</ele>
        <time>2012-03-18T15:31:36Z</time>
      </trkpt>
      <trkpt lat="44.18874" lon="4.26496">
        <ele>152.03</ele>
        <time>2012-03-18T15:31:52Z</time>
      </trkpt>
      <trkpt lat="44.18874" lon="4.26496">
        <ele>152.51</ele>
        <time>2012-03-18T15:32:11Z</time>
      </trkpt>
      <trkpt lat="44.18875" lon="4.26496">
        <ele>152.03</ele>
        <time>2012-03-18T15:32:32Z</time>
      </trkpt>
      <trkpt lat="44.18875" lon="4.26496">
        <ele>152.03</ele>
        <time>2012-03-18T15:32:52Z</time>
      </trkpt>
      <trkpt lat="44.18875" lon="4.26496">
        <ele>152.99</ele>
        <time>2012-03-18T15:33:23Z</time>
      </trkpt>
      <trkpt lat="44.18875" lon="4.26496">
        <ele>152.03</ele>
        <time>2012-03-18T15:33:52Z</time>
      </trkpt>
      <trkpt lat="44.18878" lon="4.26495">
        <ele>152.99</ele>
        <time>2012-03-18T15:34:07Z</time>
      </trkpt>
      <trkpt lat="44.18879" lon="4.26495">
        <ele>152.99</ele>
        <time>2012-03-18T15:34:31Z</time>
      </trkpt>
      <trkpt lat="44.18879" lon="4.26495">
        <ele>152.51</ele>
        <time>2012-03-18T15:34:47Z</time>
      </trkpt>
      <trkpt lat="44.18879" lon="4.26495">
        <ele>153.47</ele>
        <time>2012-03-18T15:35:14Z</time>
      </trkpt>
      <trkpt lat="44.1888" lon="4.26496">
        <ele>153.47</ele>
        <time>2012-03-18T15:35:35Z</time>
      </trkpt>
      <trkpt lat="44.1888" lon="4.26496">
        <ele>153.47</ele>
        <time>2012-03-18T15:36:02Z</time>
      </trkpt>
      <trkpt lat="44.1888" lon="4.26495">
        <ele>153.47</ele>
        <time>2012-03-18T15:36:15Z</time>
      </trkpt>
      <trkpt lat="44.1888" lon="4.26495">
        <ele>152.99</ele>
        <time>2012-03-18T15:36:42Z</time>
      </trkpt>
      <trkpt lat="44.1888" lon="4.26496">
        <ele>152.51</ele>
        <time>2012-03-18T15:36:57Z</time>
      </trkpt>
      <trkpt lat="44.18885" lon="4.26496">
        <ele>152.99</ele>
        <time>2012-03-18T15:37:09Z</time>
      </trkpt>
      <trkpt lat="44.18886" lon="4.26495">
        <ele>152.99</ele>
        <time>2012-03-18T15:37:32Z</time>
      </trkpt>
      <trkpt lat="44.18886" lon="4.26495">
        <ele>153.47</ele>
        <time>2012-03-18T15:37:33Z</time>
      </trkpt>
      <trkpt lat="44.18882" lon="4.265">
        <ele>152.99</ele>
        <time>2012-03-18T15:37:38Z</time>
      </trkpt>
      <trkpt lat="44.18872" lon="4.26513">
        <ele>153.95</ele>
        <time>2012-03-18T15:37:49Z</time>
      </trkpt>
      <trkpt lat="44.18872" lon="4.26517">
        <ele>153.95</ele>
        <time>2012-03-18T15:38:03Z</time>
      </trkpt>
      <trkpt lat="44.18872" lon="4.26517">
        <ele>154.43</ele>
        <time>2012-03-18T15:38:32Z</time>
      </trkpt>
      <trkpt lat="44.18869" lon="4.26522">
        <ele>154.43</ele>
        <time>2012-03-18T15:38:42Z</time>
      </trkpt>
      <trkpt lat="44.18859" lon="4.26536">
        <ele>155.39</ele>
        <time>2012-03-18T15:38:55Z</time>
      </trkpt>
      <trkpt lat="44.18853" lon="4.26542">
        <ele>155.87</ele>
        <time>2012-03-18T15:39:01Z</time>
      </trkpt>
      <trkpt lat="44.18849" lon="4.26545">
        <ele>155.87</ele>
        <time>2012-03-18T15:39:05Z</time>
      </trkpt>
      <trkpt lat="44.18843" lon="4.2655">
        <ele>156.83</ele>
        <time>2012-03-18T15:39:18Z</time>
      </trkpt>
      <trkpt lat="44.18843" lon="4.26551">
        <ele>156.83</ele>
        <time>2012-03-18T15:39:34Z</time>
      </trkpt>
      <trkpt lat="44.18843" lon="4.26551">
        <ele>156.83</ele>
        <time>2012-03-18T15:39:38Z</time>
      </trkpt>
      <trkpt lat="44.18841" lon="4.26558">
        <ele>156.83</ele>
        <time>2012-03-18T15:39:43Z</time>
      </trkpt>
      <trkpt lat="44.18838" lon="4.26564">
        <ele>157.79</ele>
        <time>2012-03-18T15:39:47Z</time>
      </trkpt>
      <trkpt lat="44.18835" lon="4.26566">
        <ele>157.31</ele>
        <time>2012-03-18T15:39:50Z</time>
      </trkpt>
      <trkpt lat="44.18822" lon="4.26577">
        <ele>159.72</ele>
        <time>2012-03-18T15:40:03Z</time>
      </trkpt>
      <trkpt lat="44.18811" lon="4.26581">
        <ele>160.68</ele>
        <time>2012-03-18T15:40:14Z</time>
      </trkpt>
      <trkpt lat="44.18799" lon="4.26579">
        <ele>161.16</ele>
        <time>2012-03-18T15:40:25Z</time>
      </trkpt>
      <trkpt lat="44.18789" lon="4.26575">
        <ele>162.12</ele>
        <time>2012-03-18T15:40:36Z</time>
      </trkpt>
      <trkpt lat="44.18776" lon="4.2657">
        <ele>164.04</ele>
        <time>2012-03-18T15:40:50Z</time>
      </trkpt>
      <trkpt lat="44.18761" lon="4.26564">
        <ele>164.04</ele>
        <time>2012-03-18T15:41:03Z</time>
      </trkpt>
      <trkpt lat="44.1875" lon="4.2656">
        <ele>164.52</ele>
        <time>2012-03-18T15:41:16Z</time>
      </trkpt>
      <trkpt lat="44.18736" lon="4.26556">
        <ele>166.45</ele>
        <time>2012-03-18T15:41:32Z</time>
      </trkpt>
      <trkpt lat="44.18735" lon="4.26557">
        <ele>166.45</ele>
        <time>2012-03-18T15:41:49Z</time>
      </trkpt>
      <trkpt lat="44.18735" lon="4.26557">
        <ele>166.45</ele>
        <time>2012-03-18T15:42:07Z</time>
      </trkpt>
      <trkpt lat="44.18734" lon="4.26558">
        <ele>165.96</ele>
        <time>2012-03-18T15:42:30Z</time>
      </trkpt>
      <trkpt lat="44.18725" lon="4.26555">
        <ele>166.93</ele>
        <time>2012-03-18T15:42:46Z</time>
      </trkpt>
      <trkpt lat="44.18715" lon="4.26551">
        <ele>168.37</ele>
        <time>2012-03-18T15:42:59Z</time>
      </trkpt>
      <trkpt lat="44.18709" lon="4.26552">
        <ele>167.89</ele>
        <time>2012-03-18T15:43:06Z</time>
      </trkpt>
      <trkpt lat="44.18695" lon="4.26555">
        <ele>169.33</ele>
        <time>2012-03-18T15:43:21Z</time>
      </trkpt>
      <trkpt lat="44.18689" lon="4.26552">
        <ele>169.81</ele>
        <time>2012-03-18T15:43:38Z</time>
      </trkpt>
      <trkpt lat="44.18679" lon="4.26549">
        <ele>170.29</ele>
        <time>2012-03-18T15:43:50Z</time>
      </trkpt>
      <trkpt lat="44.18677" lon="4.26548">
        <ele>170.77</ele>
        <time>2012-03-18T15:43:53Z</time>
      </trkpt>
      <trkpt lat="44.18672" lon="4.26548">
        <ele>171.73</ele>
        <time>2012-03-18T15:43:58Z</time>
      </trkpt>
      <trkpt lat="44.18669" lon="4.26548">
        <ele>170.77</ele>
        <time>2012-03-18T15:44:01Z</time>
      </trkpt>
      <trkpt lat="44.1866" lon="4.26546">
        <ele>171.25</ele>
        <time>2012-03-18T15:44:11Z</time>
      </trkpt>
      <trkpt lat="44.18649" lon="4.26546">
        <ele>172.21</ele>
        <time>2012-03-18T15:44:23Z</time>
      </trkpt>
      <trkpt lat="44.1864" lon="4.26544">
        <ele>173.17</ele>
        <time>2012-03-18T15:44:35Z</time>
      </trkpt>
      <trkpt lat="44.18639" lon="4.26543">
        <ele>173.17</ele>
        <time>2012-03-18T15:44:39Z</time>
      </trkpt>
      <trkpt lat="44.18632" lon="4.26544">
        <ele>173.17</ele>
        <time>2012-03-18T15:44:45Z</time>
      </trkpt>
      <trkpt lat="44.18629" lon="4.26544">
        <ele>174.14</ele>
        <time>2012-03-18T15:44:47Z</time>
      </trkpt>
      <trkpt lat="44.18625" lon="4.26543">
        <ele>173.66</ele>
        <time>2012-03-18T15:44:50Z</time>
      </trkpt>
      <trkpt lat="44.18621" lon="4.26542">
        <ele>174.14</ele>
        <time>2012-03-18T15:44:55Z</time>
      </trkpt>
      <trkpt lat="44.18616" lon="4.26541">
        <ele>175.1</ele>
        <time>2012-03-18T15:45:00Z</time>
      </trkpt>
      <trkpt lat="44.18609" lon="4.26544">
        <ele>175.58</ele>
        <time>2012-03-18T15:45:08Z</time>
      </trkpt>
      <trkpt lat="44.18602" lon="4.26541">
        <ele>176.06</ele>
        <time>2012-03-18T15:45:16Z</time>
      </trkpt>
      <trkpt lat="44.18591" lon="4.26534">
        <ele>177.02</ele>
        <time>2012-03-18T15:45:29Z</time>
      </trkpt>
      <trkpt lat="44.1859" lon="4.26533">
        <ele>177.02</ele>
        <time>2012-03-18T15:45:30Z</time>
      </trkpt>
      <trkpt lat="44.18585" lon="4.26529">
        <ele>177.5</ele>
        <time>2012-03-18T15:45:45Z</time>
      </trkpt>
      <trkpt lat="44.18585" lon="4.26528">
        <ele>177.02</ele>
        <time>2012-03-18T15:46:02Z</time>
      </trkpt>
      <trkpt lat="44.18584" lon="4.26529">
        <ele>177.02</ele>
        <time>2012-03-18T15:46:13Z</time>
      </trkpt>
      <trkpt lat="44.1858" lon="4.26527">
        <ele>177.5</ele>
        <time>2012-03-18T15:46:17Z</time>
      </trkpt>
      <trkpt lat="44.18577" lon="4.26528">
        <ele>177.02</ele>
        <time>2012-03-18T15:46:19Z</time>
      </trkpt>
      <trkpt lat="44.18559" lon="4.26535">
        <ele>178.46</ele>
        <time>2012-03-18T15:46:33Z</time>
      </trkpt>
      <trkpt lat="44.1855" lon="4.26541">
        <ele>178.94</ele>
        <time>2012-03-18T15:46:41Z</time>
      </trkpt>
      <trkpt lat="44.18537" lon="4.26553">
        <ele>179.9</ele>
        <time>2012-03-18T15:46:53Z</time>
      </trkpt>
      <trkpt lat="44.18529" lon="4.26567">
        <ele>180.38</ele>
        <time>2012-03-18T15:47:03Z</time>
      </trkpt>
      <trkpt lat="44.18522" lon="4.26579">
        <ele>181.35</ele>
        <time>2012-03-18T15:47:13Z</time>
      </trkpt>
      <trkpt lat="44.18519" lon="4.26584">
        <ele>181.35</ele>
        <time>2012-03-18T15:47:17Z</time>
      </trkpt>
      <trkpt lat="44.18514" lon="4.26589">
        <ele>182.31</ele>
        <time>2012-03-18T15:47:31Z</time>
      </trkpt>
      <trkpt lat="44.18511" lon="4.26592">
        <ele>182.79</ele>
        <time>2012-03-18T15:47:47Z</time>
      </trkpt>
      <trkpt lat="44.18501" lon="4.26605">
        <ele>183.27</ele>
        <time>2012-03-18T15:48:01Z</time>
      </trkpt>
      <trkpt lat="44.18492" lon="4.26613">
        <ele>184.71</ele>
        <time>2012-03-18T15:48:13Z</time>
      </trkpt>
      <trkpt lat="44.18489" lon="4.26617">
        <ele>179.42</ele>
        <time>2012-03-18T15:48:17Z</time>
      </trkpt>
      <trkpt lat="44.18488" lon="4.26618">
        <ele>183.27</ele>
        <time>2012-03-18T15:48:18Z</time>
      </trkpt>
      <trkpt lat="44.18486" lon="4.26619">
        <ele>186.63</ele>
        <time>2012-03-18T15:48:20Z</time>
      </trkpt>
      <trkpt lat="44.18486" lon="4.2662">
        <ele>182.79</ele>
        <time>2012-03-18T15:48:21Z</time>
      </trkpt>
      <trkpt lat="44.18484" lon="4.26624">
        <ele>185.67</ele>
        <time>2012-03-18T15:48:31Z</time>
      </trkpt>
      <trkpt lat="44.18484" lon="4.26624">
        <ele>182.31</ele>
        <time>2012-03-18T15:48:34Z</time>
      </trkpt>
      <trkpt lat="44.18484" lon="4.26624">
        <ele>187.11</ele>
        <time>2012-03-18T15:48:36Z</time>
      </trkpt>
      <trkpt lat="44.18484" lon="4.26624">
        <ele>185.19</ele>
        <time>2012-03-18T15:48:37Z</time>
      </trkpt>
      <trkpt lat="44.18484" lon="4.26624">
        <ele>185.19</ele>
        <time>2012-03-18T15:49:02Z</time>
      </trkpt>
      <trkpt lat="44.18484" lon="4.26624">
        <ele>185.19</ele>
        <time>2012-03-18T15:49:27Z</time>
      </trkpt>
      <trkpt lat="44.18484" lon="4.26624">
        <ele>185.19</ele>
        <time>2012-03-18T15:49:53Z</time>
      </trkpt>
      <trkpt lat="44.18482" lon="4.26625">
        <ele>184.71</ele>
        <time>2012-03-18T15:50:07Z</time>
      </trkpt>
      <trkpt lat="44.18474" lon="4.26636">
        <ele>187.11</ele>
        <time>2012-03-18T15:50:17Z</time>
      </trkpt>
      <trkpt lat="44.18467" lon="4.26644">
        <ele>186.63</ele>
        <time>2012-03-18T15:50:26Z</time>
      </trkpt>
      <trkpt lat="44.18454" lon="4.26656">
        <ele>186.63</ele>
        <time>2012-03-18T15:50:40Z</time>
      </trkpt>
      <trkpt lat="44.18443" lon="4.26668">
        <ele>188.08</ele>
        <time>2012-03-18T15:50:53Z</time>
      </trkpt>
      <trkpt lat="44.18433" lon="4.26682">
        <ele>188.08</ele>
        <time>2012-03-18T15:51:07Z</time>
      </trkpt>
      <trkpt lat="44.18432" lon="4.26683">
        <ele>189.52</ele>
        <time>2012-03-18T15:51:08Z</time>
      </trkpt>
      <trkpt lat="44.18422" lon="4.26692">
        <ele>189.04</ele>
        <time>2012-03-18T15:51:21Z</time>
      </trkpt>
      <trkpt lat="44.18415" lon="4.26697">
        <ele>185.19</ele>
        <time>2012-03-18T15:51:31Z</time>
      </trkpt>
      <trkpt lat="44.18414" lon="4.26697">
        <ele>190.48</ele>
        <time>2012-03-18T15:51:32Z</time>
      </trkpt>
      <trkpt lat="44.18403" lon="4.267">
        <ele>190.48</ele>
        <time>2012-03-18T15:51:44Z</time>
      </trkpt>
      <trkpt lat="44.18401" lon="4.267">
        <ele>190.48</ele>
        <time>2012-03-18T15:51:46Z</time>
      </trkpt>
      <trkpt lat="44.184" lon="4.267">
        <ele>190</ele>
        <time>2012-03-18T15:51:48Z</time>
      </trkpt>
      <trkpt lat="44.18395" lon="4.26699">
        <ele>190.48</ele>
        <time>2012-03-18T15:51:53Z</time>
      </trkpt>
      <trkpt lat="44.18392" lon="4.26698">
        <ele>190.48</ele>
        <time>2012-03-18T15:51:55Z</time>
      </trkpt>
      <trkpt lat="44.18382" lon="4.26692">
        <ele>190.96</ele>
        <time>2012-03-18T15:52:08Z</time>
      </trkpt>
      <trkpt lat="44.18381" lon="4.26692">
        <ele>190.96</ele>
        <time>2012-03-18T15:52:13Z</time>
      </trkpt>
      <trkpt lat="44.18378" lon="4.26685">
        <ele>191.92</ele>
        <time>2012-03-18T15:52:18Z</time>
      </trkpt>
      <trkpt lat="44.18367" lon="4.26672">
        <ele>192.4</ele>
        <time>2012-03-18T15:52:32Z</time>
      </trkpt>
      <trkpt lat="44.18365" lon="4.26668">
        <ele>192.88</ele>
        <time>2012-03-18T15:52:36Z</time>
      </trkpt>
      <trkpt lat="44.18354" lon="4.26658">
        <ele>193.84</ele>
        <time>2012-03-18T15:52:48Z</time>
      </trkpt>
      <trkpt lat="44.18347" lon="4.26647">
        <ele>194.8</ele>
        <time>2012-03-18T15:52:58Z</time>
      </trkpt>
      <trkpt lat="44.18337" lon="4.26637">
        <ele>195.28</ele>
        <time>2012-03-18T15:53:10Z</time>
      </trkpt>
      <trkpt lat="44.1833" lon="4.26626">
        <ele>195.77</ele>
        <time>2012-03-18T15:53:22Z</time>
      </trkpt>
      <trkpt lat="44.1833" lon="4.26623">
        <ele>195.77</ele>
        <time>2012-03-18T15:53:24Z</time>
      </trkpt>
      <trkpt lat="44.1832" lon="4.2661">
        <ele>196.25</ele>
        <time>2012-03-18T15:53:37Z</time>
      </trkpt>
      <trkpt lat="44.18319" lon="4.26609">
        <ele>196.73</ele>
        <time>2012-03-18T15:53:38Z</time>
      </trkpt>
      <trkpt lat="44.18307" lon="4.26615">
        <ele>196.73</ele>
        <time>2012-03-18T15:53:51Z</time>
      </trkpt>
      <trkpt lat="44.18303" lon="4.26625">
        <ele>196.73</ele>
        <time>2012-03-18T15:54:05Z</time>
      </trkpt>
      <trkpt lat="44.18303" lon="4.26625">
        <ele>197.21</ele>
        <time>2012-03-18T15:54:24Z</time>
      </trkpt>
      <trkpt lat="44.18304" lon="4.2663">
        <ele>197.21</ele>
        <time>2012-03-18T15:54:35Z</time>
      </trkpt>
      <trkpt lat="44.18304" lon="4.2663">
        <ele>196.73</ele>
        <time>2012-03-18T15:55:02Z</time>
      </trkpt>
      <trkpt lat="44.18305" lon="4.26631">
        <ele>197.69</ele>
        <time>2012-03-18T15:55:09Z</time>
      </trkpt>
      <trkpt lat="44.18307" lon="4.26637">
        <ele>197.69</ele>
        <time>2012-03-18T15:55:13Z</time>
      </trkpt>
      <trkpt lat="44.1831" lon="4.26647">
        <ele>198.65</ele>
        <time>2012-03-18T15:55:20Z</time>
      </trkpt>
      <trkpt lat="44.18313" lon="4.26659">
        <ele>198.65</ele>
        <time>2012-03-18T15:55:29Z</time>
      </trkpt>
      <trkpt lat="44.18317" lon="4.26662">
        <ele>198.65</ele>
        <time>2012-03-18T15:55:33Z</time>
      </trkpt>
      <trkpt lat="44.18318" lon="4.26665">
        <ele>199.13</ele>
        <time>2012-03-18T15:55:46Z</time>
      </trkpt>
      <trkpt lat="44.18318" lon="4.26665">
        <ele>199.61</ele>
        <time>2012-03-18T15:56:01Z</time>
      </trkpt>
      <trkpt lat="44.18318" lon="4.26666">
        <ele>199.61</ele>
        <time>2012-03-18T15:56:19Z</time>
      </trkpt>
      <trkpt lat="44.18318" lon="4.26666">
        <ele>199.13</ele>
        <time>2012-03-18T15:56:29Z</time>
      </trkpt>
      <trkpt lat="44.18318" lon="4.26668">
        <ele>199.13</ele>
        <time>2012-03-18T15:56:41Z</time>
      </trkpt>
      <trkpt lat="44.18318" lon="4.26668">
        <ele>199.61</ele>
        <time>2012-03-18T15:57:05Z</time>
      </trkpt>
      <trkpt lat="44.18317" lon="4.26668">
        <ele>199.61</ele>
        <time>2012-03-18T15:57:28Z</time>
      </trkpt>
      <trkpt lat="44.18317" lon="4.26668">
        <ele>200.09</ele>
        <time>2012-03-18T15:57:45Z</time>
      </trkpt>
      <trkpt lat="44.18318" lon="4.26668">
        <ele>199.13</ele>
        <time>2012-03-18T15:58:02Z</time>
      </trkpt>
      <trkpt lat="44.18318" lon="4.26668">
        <ele>199.13</ele>
        <time>2012-03-18T15:58:27Z</time>
      </trkpt>
      <trkpt lat="44.18318" lon="4.26668">
        <ele>199.61</ele>
        <time>2012-03-18T15:58:29Z</time>
      </trkpt>
      <trkpt lat="44.1832" lon="4.2667">
        <ele>200.09</ele>
        <time>2012-03-18T15:58:31Z</time>
      </trkpt>
      <trkpt lat="44.18322" lon="4.26674">
        <ele>199.61</ele>
        <time>2012-03-18T15:58:34Z</time>
      </trkpt>
      <trkpt lat="44.18324" lon="4.26676">
        <ele>200.09</ele>
        <time>2012-03-18T15:58:36Z</time>
      </trkpt>
      <trkpt lat="44.18328" lon="4.26685">
        <ele>200.57</ele>
        <time>2012-03-18T15:58:42Z</time>
      </trkpt>
      <trkpt lat="44.1833" lon="4.2669">
        <ele>200.57</ele>
        <time>2012-03-18T15:58:46Z</time>
      </trkpt>
      <trkpt lat="44.18336" lon="4.26704">
        <ele>201.05</ele>
        <time>2012-03-18T15:58:55Z</time>
      </trkpt>
      <trkpt lat="44.18338" lon="4.2671">
        <ele>201.05</ele>
        <time>2012-03-18T15:58:59Z</time>
      </trkpt>
      <trkpt lat="44.18343" lon="4.26723">
        <ele>201.53</ele>
        <time>2012-03-18T15:59:07Z</time>
      </trkpt>
      <trkpt lat="44.18345" lon="4.26734">
        <ele>201.53</ele>
        <time>2012-03-18T15:59:14Z</time>
      </trkpt>
      <trkpt lat="44.18355" lon="4.2675">
        <ele>202.49</ele>
        <time>2012-03-18T15:59:26Z</time>
      </trkpt>
      <trkpt lat="44.18364" lon="4.26759">
        <ele>201.53</ele>
        <time>2012-03-18T15:59:34Z</time>
      </trkpt>
      <trkpt lat="44.18367" lon="4.26765">
        <ele>202.98</ele>
        <time>2012-03-18T15:59:38Z</time>
      </trkpt>
      <trkpt lat="44.18372" lon="4.26774">
        <ele>202.98</ele>
        <time>2012-03-18T15:59:44Z</time>
      </trkpt>
      <trkpt lat="44.18367" lon="4.26793">
        <ele>204.42</ele>
        <time>2012-03-18T15:59:57Z</time>
      </trkpt>
      <trkpt lat="44.18357" lon="4.26797">
        <ele>204.9</ele>
        <time>2012-03-18T16:00:07Z</time>
      </trkpt>
      <trkpt lat="44.1835" lon="4.26797">
        <ele>205.38</ele>
        <time>2012-03-18T16:00:20Z</time>
      </trkpt>
      <trkpt lat="44.18338" lon="4.26795">
        <ele>205.86</ele>
        <time>2012-03-18T16:00:31Z</time>
      </trkpt>
      <trkpt lat="44.1832" lon="4.26795">
        <ele>207.3</ele>
        <time>2012-03-18T16:00:45Z</time>
      </trkpt>
      <trkpt lat="44.18306" lon="4.26794">
        <ele>207.78</ele>
        <time>2012-03-18T16:00:57Z</time>
      </trkpt>
      <trkpt lat="44.18295" lon="4.26795">
        <ele>208.26</ele>
        <time>2012-03-18T16:01:07Z</time>
      </trkpt>
      <trkpt lat="44.18279" lon="4.2679">
        <ele>209.7</ele>
        <time>2012-03-18T16:01:23Z</time>
      </trkpt>
      <trkpt lat="44.18266" lon="4.26786">
        <ele>210.19</ele>
        <time>2012-03-18T16:01:36Z</time>
      </trkpt>
      <trkpt lat="44.18257" lon="4.26783">
        <ele>210.67</ele>
        <time>2012-03-18T16:01:44Z</time>
      </trkpt>
      <trkpt lat="44.18255" lon="4.26781">
        <ele>210.67</ele>
        <time>2012-03-18T16:01:46Z</time>
      </trkpt>
      <trkpt lat="44.18247" lon="4.26777">
        <ele>211.63</ele>
        <time>2012-03-18T16:01:54Z</time>
      </trkpt>
      <trkpt lat="44.18234" lon="4.26766">
        <ele>211.15</ele>
        <time>2012-03-18T16:02:07Z</time>
      </trkpt>
      <trkpt lat="44.1823" lon="4.26763">
        <ele>211.63</ele>
        <time>2012-03-18T16:02:11Z</time>
      </trkpt>
      <trkpt lat="44.18215" lon="4.26755">
        <ele>212.59</ele>
        <time>2012-03-18T16:02:22Z</time>
      </trkpt>
      <trkpt lat="44.18213" lon="4.26755">
        <ele>212.59</ele>
        <time>2012-03-18T16:02:25Z</time>
      </trkpt>
      <trkpt lat="44.18209" lon="4.26753">
        <ele>212.59</ele>
        <time>2012-03-18T16:02:33Z</time>
      </trkpt>
      <trkpt lat="44.18206" lon="4.2675">
        <ele>212.59</ele>
        <time>2012-03-18T16:02:36Z</time>
      </trkpt>
      <trkpt lat="44.18202" lon="4.26748">
        <ele>213.55</ele>
        <time>2012-03-18T16:02:40Z</time>
      </trkpt>
      <trkpt lat="44.18193" lon="4.26741">
        <ele>214.03</ele>
        <time>2012-03-18T16:02:49Z</time>
      </trkpt>
      <trkpt lat="44.18192" lon="4.2674">
        <ele>214.03</ele>
        <time>2012-03-18T16:03:01Z</time>
      </trkpt>
      <trkpt lat="44.18191" lon="4.2674">
        <ele>214.51</ele>
        <time>2012-03-18T16:03:15Z</time>
      </trkpt>
      <trkpt lat="44.18191" lon="4.2674">
        <ele>214.03</ele>
        <time>2012-03-18T16:03:24Z</time>
      </trkpt>
      <trkpt lat="44.18188" lon="4.26737">
        <ele>214.03</ele>
        <time>2012-03-18T16:03:27Z</time>
      </trkpt>
      <trkpt lat="44.18181" lon="4.26733">
        <ele>215.47</ele>
        <time>2012-03-18T16:03:40Z</time>
      </trkpt>
      <trkpt lat="44.18171" lon="4.26727">
        <ele>215.95</ele>
        <time>2012-03-18T16:04:00Z</time>
      </trkpt>
      <trkpt lat="44.1816" lon="4.26717">
        <ele>216.43</ele>
        <time>2012-03-18T16:04:10Z</time>
      </trkpt>
      <trkpt lat="44.18157" lon="4.26714">
        <ele>216.43</ele>
        <time>2012-03-18T16:04:13Z</time>
      </trkpt>
      <trkpt lat="44.18153" lon="4.26713">
        <ele>216.43</ele>
        <time>2012-03-18T16:04:16Z</time>
      </trkpt>
      <trkpt lat="44.1814" lon="4.26707">
        <ele>217.4</ele>
        <time>2012-03-18T16:04:28Z</time>
      </trkpt>
      <trkpt lat="44.1813" lon="4.26704">
        <ele>218.36</ele>
        <time>2012-03-18T16:04:37Z</time>
      </trkpt>
      <trkpt lat="44.18123" lon="4.26701">
        <ele>218.36</ele>
        <time>2012-03-18T16:04:44Z</time>
      </trkpt>
      <trkpt lat="44.18118" lon="4.26704">
        <ele>218.84</ele>
        <time>2012-03-18T16:04:49Z</time>
      </trkpt>
      <trkpt lat="44.18113" lon="4.26703">
        <ele>217.88</ele>
        <time>2012-03-18T16:05:00Z</time>
      </trkpt>
      <trkpt lat="44.18113" lon="4.26703">
        <ele>219.32</ele>
        <time>2012-03-18T16:05:17Z</time>
      </trkpt>
      <trkpt lat="44.18113" lon="4.26703">
        <ele>218.84</ele>
        <time>2012-03-18T16:05:44Z</time>
      </trkpt>
      <trkpt lat="44.18113" lon="4.26703">
        <ele>218.36</ele>
        <time>2012-03-18T16:06:08Z</time>
      </trkpt>
      <trkpt lat="44.18113" lon="4.26703">
        <ele>218.36</ele>
        <time>2012-03-18T16:06:40Z</time>
      </trkpt>
      <trkpt lat="44.18113" lon="4.26703">
        <ele>218.36</ele>
        <time>2012-03-18T16:07:03Z</time>
      </trkpt>
      <trkpt lat="44.18113" lon="4.26704">
        <ele>218.36</ele>
        <time>2012-03-18T16:07:25Z</time>
      </trkpt>
      <trkpt lat="44.18113" lon="4.26704">
        <ele>217.4</ele>
        <time>2012-03-18T16:07:46Z</time>
      </trkpt>
      <trkpt lat="44.18114" lon="4.26702">
        <ele>217.4</ele>
        <time>2012-03-18T16:07:59Z</time>
      </trkpt>
      <trkpt lat="44.18116" lon="4.26699">
        <ele>217.88</ele>
        <time>2012-03-18T16:08:02Z</time>
      </trkpt>
      <trkpt lat="44.18124" lon="4.26694">
        <ele>217.88</ele>
        <time>2012-03-18T16:08:09Z</time>
      </trkpt>
      <trkpt lat="44.18132" lon="4.26694">
        <ele>218.84</ele>
        <time>2012-03-18T16:08:24Z</time>
      </trkpt>
      <trkpt lat="44.18147" lon="4.26692">
        <ele>220.28</ele>
        <time>2012-03-18T16:08:36Z</time>
      </trkpt>
      <trkpt lat="44.18155" lon="4.26693">
        <ele>220.28</ele>
        <time>2012-03-18T16:08:44Z</time>
      </trkpt>
      <trkpt lat="44.1816" lon="4.26692">
        <ele>221.24</ele>
        <time>2012-03-18T16:08:48Z</time>
      </trkpt>
      <trkpt lat="44.18167" lon="4.26691">
        <ele>221.24</ele>
        <time>2012-03-18T16:08:54Z</time>
      </trkpt>
      <trkpt lat="44.1817" lon="4.2669">
        <ele>221.72</ele>
        <time>2012-03-18T16:08:57Z</time>
      </trkpt>
      <trkpt lat="44.18178" lon="4.26687">
        <ele>222.2</ele>
        <time>2012-03-18T16:09:14Z</time>
      </trkpt>
      <trkpt lat="44.18178" lon="4.26686">
        <ele>222.68</ele>
        <time>2012-03-18T16:09:32Z</time>
      </trkpt>
      <trkpt lat="44.18179" lon="4.26686">
        <ele>222.68</ele>
        <time>2012-03-18T16:09:42Z</time>
      </trkpt>
      <trkpt lat="44.18179" lon="4.26687">
        <ele>221.72</ele>
        <time>2012-03-18T16:09:56Z</time>
      </trkpt>
      <trkpt lat="44.18179" lon="4.26687">
        <ele>221.72</ele>
        <time>2012-03-18T16:10:29Z</time>
      </trkpt>
      <trkpt lat="44.18179" lon="4.26686">
        <ele>222.68</ele>
        <time>2012-03-18T16:10:36Z</time>
      </trkpt>
      <trkpt lat="44.18187" lon="4.26683">
        <ele>223.16</ele>
        <time>2012-03-18T16:10:42Z</time>
      </trkpt>
      <trkpt lat="44.1819" lon="4.26679">
        <ele>223.64</ele>
        <time>2012-03-18T16:10:46Z</time>
      </trkpt>
      <trkpt lat="44.18194" lon="4.26676">
        <ele>224.61</ele>
        <time>2012-03-18T16:10:50Z</time>
      </trkpt>
      <trkpt lat="44.18197" lon="4.26674">
        <ele>224.61</ele>
        <time>2012-03-18T16:10:53Z</time>
      </trkpt>
      <trkpt lat="44.18199" lon="4.26668">
        <ele>225.09</ele>
        <time>2012-03-18T16:10:58Z</time>
      </trkpt>
      <trkpt lat="44.18192" lon="4.26654">
        <ele>225.57</ele>
        <time>2012-03-18T16:11:08Z</time>
      </trkpt>
      <trkpt lat="44.18187" lon="4.26653">
        <ele>225.09</ele>
        <time>2012-03-18T16:11:12Z</time>
      </trkpt>
      <trkpt lat="44.18181" lon="4.2665">
        <ele>225.57</ele>
        <time>2012-03-18T16:11:17Z</time>
      </trkpt>
      <trkpt lat="44.18173" lon="4.26648">
        <ele>225.57</ele>
        <time>2012-03-18T16:11:24Z</time>
      </trkpt>
      <trkpt lat="44.18165" lon="4.26647">
        <ele>225.09</ele>
        <time>2012-03-18T16:11:30Z</time>
      </trkpt>
      <trkpt lat="44.1816" lon="4.26642">
        <ele>224.12</ele>
        <time>2012-03-18T16:11:35Z</time>
      </trkpt>
      <trkpt lat="44.18147" lon="4.26629">
        <ele>223.64</ele>
        <time>2012-03-18T16:11:49Z</time>
      </trkpt>
      <trkpt lat="44.18135" lon="4.26616">
        <ele>222.68</ele>
        <time>2012-03-18T16:12:00Z</time>
      </trkpt>
      <trkpt lat="44.18132" lon="4.26613">
        <ele>222.2</ele>
        <time>2012-03-18T16:12:03Z</time>
      </trkpt>
      <trkpt lat="44.18114" lon="4.26595">
        <ele>222.68</ele>
        <time>2012-03-18T16:12:19Z</time>
      </trkpt>
      <trkpt lat="44.18109" lon="4.26586">
        <ele>221.72</ele>
        <time>2012-03-18T16:12:26Z</time>
      </trkpt>
      <trkpt lat="44.18098" lon="4.26564">
        <ele>218.36</ele>
        <time>2012-03-18T16:12:41Z</time>
      </trkpt>
      <trkpt lat="44.18097" lon="4.26563">
        <ele>222.2</ele>
        <time>2012-03-18T16:12:42Z</time>
      </trkpt>
      <trkpt lat="44.18093" lon="4.26555">
        <ele>221.24</ele>
        <time>2012-03-18T16:12:57Z</time>
      </trkpt>
      <trkpt lat="44.18089" lon="4.2655">
        <ele>221.24</ele>
        <time>2012-03-18T16:13:11Z</time>
      </trkpt>
      <trkpt lat="44.18087" lon="4.26546">
        <ele>220.76</ele>
        <time>2012-03-18T16:13:14Z</time>
      </trkpt>
      <trkpt lat="44.18088" lon="4.26537">
        <ele>219.8</ele>
        <time>2012-03-18T16:13:20Z</time>
      </trkpt>
      <trkpt lat="44.1809" lon="4.26523">
        <ele>219.32</ele>
        <time>2012-03-18T16:13:28Z</time>
      </trkpt>
      <trkpt lat="44.181" lon="4.26504">
        <ele>219.32</ele>
        <time>2012-03-18T16:13:42Z</time>
      </trkpt>
      <trkpt lat="44.1811" lon="4.26491">
        <ele>219.8</ele>
        <time>2012-03-18T16:13:54Z</time>
      </trkpt>
      <trkpt lat="44.18119" lon="4.26485">
        <ele>221.72</ele>
        <time>2012-03-18T16:14:05Z</time>
      </trkpt>
      <trkpt lat="44.18133" lon="4.26478">
        <ele>222.68</ele>
        <time>2012-03-18T16:14:16Z</time>
      </trkpt>
      <trkpt lat="44.18138" lon="4.26475">
        <ele>224.12</ele>
        <time>2012-03-18T16:14:25Z</time>
      </trkpt>
      <trkpt lat="44.18138" lon="4.26475">
        <ele>223.16</ele>
        <time>2012-03-18T16:14:56Z</time>
      </trkpt>
      <trkpt lat="44.18143" lon="4.26469">
        <ele>223.16</ele>
        <time>2012-03-18T16:15:11Z</time>
      </trkpt>
      <trkpt lat="44.18155" lon="4.26458">
        <ele>224.61</ele>
        <time>2012-03-18T16:15:25Z</time>
      </trkpt>
      <trkpt lat="44.18167" lon="4.2645">
        <ele>227.01</ele>
        <time>2012-03-18T16:15:34Z</time>
      </trkpt>
      <trkpt lat="44.18169" lon="4.2645">
        <ele>226.05</ele>
        <time>2012-03-18T16:15:37Z</time>
      </trkpt>
      <trkpt lat="44.18181" lon="4.26448">
        <ele>227.97</ele>
        <time>2012-03-18T16:15:52Z</time>
      </trkpt>
      <trkpt lat="44.18184" lon="4.26449">
        <ele>228.45</ele>
        <time>2012-03-18T16:15:58Z</time>
      </trkpt>
      <trkpt lat="44.18191" lon="4.26448">
        <ele>229.41</ele>
        <time>2012-03-18T16:16:08Z</time>
      </trkpt>
      <trkpt lat="44.18191" lon="4.26448">
        <ele>230.37</ele>
        <time>2012-03-18T16:16:24Z</time>
      </trkpt>
      <trkpt lat="44.18204" lon="4.26442">
        <ele>231.81</ele>
        <time>2012-03-18T16:16:39Z</time>
      </trkpt>
      <trkpt lat="44.18206" lon="4.26442">
        <ele>232.3</ele>
        <time>2012-03-18T16:16:42Z</time>
      </trkpt>
      <trkpt lat="44.18217" lon="4.26438">
        <ele>234.7</ele>
        <time>2012-03-18T16:16:54Z</time>
      </trkpt>
      <trkpt lat="44.18226" lon="4.26435">
        <ele>236.14</ele>
        <time>2012-03-18T16:17:03Z</time>
      </trkpt>
      <trkpt lat="44.1824" lon="4.26428">
        <ele>237.58</ele>
        <time>2012-03-18T16:17:14Z</time>
      </trkpt>
      <trkpt lat="44.18246" lon="4.26425">
        <ele>239.02</ele>
        <time>2012-03-18T16:17:20Z</time>
      </trkpt>
      <trkpt lat="44.18253" lon="4.26419">
        <ele>239.51</ele>
        <time>2012-03-18T16:17:25Z</time>
      </trkpt>
      <trkpt lat="44.18256" lon="4.26413">
        <ele>239.99</ele>
        <time>2012-03-18T16:17:31Z</time>
      </trkpt>
      <trkpt lat="44.18257" lon="4.26404">
        <ele>239.02</ele>
        <time>2012-03-18T16:17:39Z</time>
      </trkpt>
      <trkpt lat="44.18256" lon="4.26402">
        <ele>239.02</ele>
        <time>2012-03-18T16:17:49Z</time>
      </trkpt>
      <trkpt lat="44.18256" lon="4.26388">
        <ele>239.02</ele>
        <time>2012-03-18T16:17:55Z</time>
      </trkpt>
      <trkpt lat="44.18261" lon="4.26367">
        <ele>239.02</ele>
        <time>2012-03-18T16:18:09Z</time>
      </trkpt>
      <trkpt lat="44.18264" lon="4.26364">
        <ele>239.02</ele>
        <time>2012-03-18T16:18:13Z</time>
      </trkpt>
      <trkpt lat="44.18271" lon="4.26357">
        <ele>239.99</ele>
        <time>2012-03-18T16:18:21Z</time>
      </trkpt>
      <trkpt lat="44.18288" lon="4.26349">
        <ele>239.99</ele>
        <time>2012-03-18T16:18:35Z</time>
      </trkpt>
      <trkpt lat="44.18303" lon="4.26342">
        <ele>240.47</ele>
        <time>2012-03-18T16:18:48Z</time>
      </trkpt>
      <trkpt lat="44.18318" lon="4.26336">
        <ele>240.95</ele>
        <time>2012-03-18T16:19:01Z</time>
      </trkpt>
      <trkpt lat="44.18319" lon="4.26335">
        <ele>240.95</ele>
        <time>2012-03-18T16:19:02Z</time>
      </trkpt>
      <trkpt lat="44.18332" lon="4.2633">
        <ele>242.87</ele>
        <time>2012-03-18T16:19:15Z</time>
      </trkpt>
      <trkpt lat="44.18334" lon="4.26331">
        <ele>241.91</ele>
        <time>2012-03-18T16:19:17Z</time>
      </trkpt>
      <trkpt lat="44.18344" lon="4.26327">
        <ele>243.35</ele>
        <time>2012-03-18T16:19:27Z</time>
      </trkpt>
      <trkpt lat="44.18346" lon="4.26326">
        <ele>244.31</ele>
        <time>2012-03-18T16:19:30Z</time>
      </trkpt>
      <trkpt lat="44.18354" lon="4.26322">
        <ele>246.23</ele>
        <time>2012-03-18T16:19:40Z</time>
      </trkpt>
      <trkpt lat="44.1836" lon="4.26315">
        <ele>248.16</ele>
        <time>2012-03-18T16:19:52Z</time>
      </trkpt>
      <trkpt lat="44.18361" lon="4.26315">
        <ele>247.68</ele>
        <time>2012-03-18T16:19:54Z</time>
      </trkpt>
      <trkpt lat="44.18363" lon="4.26311">
        <ele>247.68</ele>
        <time>2012-03-18T16:19:57Z</time>
      </trkpt>
      <trkpt lat="44.18367" lon="4.26299">
        <ele>248.64</ele>
        <time>2012-03-18T16:20:08Z</time>
      </trkpt>
      <trkpt lat="44.18367" lon="4.26299">
        <ele>248.16</ele>
        <time>2012-03-18T16:20:14Z</time>
      </trkpt>
      <trkpt lat="44.18369" lon="4.26297">
        <ele>249.12</ele>
        <time>2012-03-18T16:20:16Z</time>
      </trkpt>
      <trkpt lat="44.18371" lon="4.26294">
        <ele>249.12</ele>
        <time>2012-03-18T16:20:19Z</time>
      </trkpt>
      <trkpt lat="44.18381" lon="4.26282">
        <ele>249.6</ele>
        <time>2012-03-18T16:20:30Z</time>
      </trkpt>
      <trkpt lat="44.18388" lon="4.26272">
        <ele>250.08</ele>
        <time>2012-03-18T16:20:39Z</time>
      </trkpt>
      <trkpt lat="44.18399" lon="4.26254">
        <ele>251.04</ele>
        <time>2012-03-18T16:20:53Z</time>
      </trkpt>
      <trkpt lat="44.184" lon="4.26253">
        <ele>251.52</ele>
        <time>2012-03-18T16:20:54Z</time>
      </trkpt>
      <trkpt lat="44.18409" lon="4.26235">
        <ele>252</ele>
        <time>2012-03-18T16:21:09Z</time>
      </trkpt>
      <trkpt lat="44.18412" lon="4.26225">
        <ele>251.52</ele>
        <time>2012-03-18T16:21:23Z</time>
      </trkpt>
      <trkpt lat="44.18412" lon="4.26225">
        <ele>252.96</ele>
        <time>2012-03-18T16:21:34Z</time>
      </trkpt>
      <trkpt lat="44.18412" lon="4.26225">
        <ele>252.48</ele>
        <time>2012-03-18T16:21:39Z</time>
      </trkpt>
      <trkpt lat="44.18412" lon="4.26225">
        <ele>252</ele>
        <time>2012-03-18T16:22:03Z</time>
      </trkpt>
      <trkpt lat="44.18412" lon="4.26225">
        <ele>251.52</ele>
        <time>2012-03-18T16:22:32Z</time>
      </trkpt>
      <trkpt lat="44.18412" lon="4.26225">
        <ele>251.52</ele>
        <time>2012-03-18T16:23:01Z</time>
      </trkpt>
      <trkpt lat="44.18412" lon="4.26224">
        <ele>251.52</ele>
        <time>2012-03-18T16:23:14Z</time>
      </trkpt>
      <trkpt lat="44.18412" lon="4.26224">
        <ele>252</ele>
        <time>2012-03-18T16:23:35Z</time>
      </trkpt>
      <trkpt lat="44.18412" lon="4.2622">
        <ele>252</ele>
        <time>2012-03-18T16:23:39Z</time>
      </trkpt>
      <trkpt lat="44.18413" lon="4.26208">
        <ele>251.04</ele>
        <time>2012-03-18T16:23:46Z</time>
      </trkpt>
      <trkpt lat="44.18418" lon="4.26195">
        <ele>250.08</ele>
        <time>2012-03-18T16:23:52Z</time>
      </trkpt>
      <trkpt lat="44.18422" lon="4.26186">
        <ele>250.08</ele>
        <time>2012-03-18T16:23:57Z</time>
      </trkpt>
      <trkpt lat="44.18426" lon="4.26173">
        <ele>249.6</ele>
        <time>2012-03-18T16:24:04Z</time>
      </trkpt>
      <trkpt lat="44.18428" lon="4.26167">
        <ele>249.12</ele>
        <time>2012-03-18T16:24:08Z</time>
      </trkpt>
      <trkpt lat="44.1843" lon="4.26161">
        <ele>248.64</ele>
        <time>2012-03-18T16:24:11Z</time>
      </trkpt>
      <trkpt lat="44.18435" lon="4.26149">
        <ele>247.2</ele>
        <time>2012-03-18T16:24:17Z</time>
      </trkpt>
      <trkpt lat="44.18439" lon="4.26127">
        <ele>246.23</ele>
        <time>2012-03-18T16:24:29Z</time>
      </trkpt>
      <trkpt lat="44.18441" lon="4.26116">
        <ele>245.27</ele>
        <time>2012-03-18T16:24:36Z</time>
      </trkpt>
      <trkpt lat="44.18445" lon="4.26108">
        <ele>243.83</ele>
        <time>2012-03-18T16:24:41Z</time>
      </trkpt>
      <trkpt lat="44.18453" lon="4.26088">
        <ele>241.91</ele>
        <time>2012-03-18T16:24:55Z</time>
      </trkpt>
      <trkpt lat="44.18458" lon="4.26073">
        <ele>239.99</ele>
        <time>2012-03-18T16:25:07Z</time>
      </trkpt>
      <trkpt lat="44.18461" lon="4.26061">
        <ele>239.02</ele>
        <time>2012-03-18T16:25:13Z</time>
      </trkpt>
      <trkpt lat="44.18462" lon="4.26048">
        <ele>237.1</ele>
        <time>2012-03-18T16:25:25Z</time>
      </trkpt>
      <trkpt lat="44.18462" lon="4.26043">
        <ele>237.1</ele>
        <time>2012-03-18T16:25:33Z</time>
      </trkpt>
      <trkpt lat="44.18462" lon="4.26035">
        <ele>236.62</ele>
        <time>2012-03-18T16:25:39Z</time>
      </trkpt>
      <trkpt lat="44.18461" lon="4.26031">
        <ele>234.7</ele>
        <time>2012-03-18T16:25:41Z</time>
      </trkpt>
      <trkpt lat="44.18462" lon="4.26012">
        <ele>232.78</ele>
        <time>2012-03-18T16:25:52Z</time>
      </trkpt>
      <trkpt lat="44.18462" lon="4.26001">
        <ele>232.3</ele>
        <time>2012-03-18T16:26:03Z</time>
      </trkpt>
      <trkpt lat="44.18461" lon="4.26">
        <ele>230.85</ele>
        <time>2012-03-18T16:26:15Z</time>
      </trkpt>
      <trkpt lat="44.18457" lon="4.25984">
        <ele>229.89</ele>
        <time>2012-03-18T16:26:24Z</time>
      </trkpt>
      <trkpt lat="44.18456" lon="4.25981">
        <ele>229.89</ele>
        <time>2012-03-18T16:26:27Z</time>
      </trkpt>
      <trkpt lat="44.18456" lon="4.25973">
        <ele>229.41</ele>
        <time>2012-03-18T16:26:31Z</time>
      </trkpt>
      <trkpt lat="44.18458" lon="4.25966">
        <ele>228.45</ele>
        <time>2012-03-18T16:26:35Z</time>
      </trkpt>
      <trkpt lat="44.18458" lon="4.25957">
        <ele>228.45</ele>
        <time>2012-03-18T16:26:40Z</time>
      </trkpt>
      <trkpt lat="44.18457" lon="4.25943">
        <ele>227.97</ele>
        <time>2012-03-18T16:26:47Z</time>
      </trkpt>
      <trkpt lat="44.18457" lon="4.25929">
        <ele>226.53</ele>
        <time>2012-03-18T16:26:55Z</time>
      </trkpt>
      <trkpt lat="44.18458" lon="4.25926">
        <ele>226.53</ele>
        <time>2012-03-18T16:26:56Z</time>
      </trkpt>
      <trkpt lat="44.1846" lon="4.2592">
        <ele>226.53</ele>
        <time>2012-03-18T16:26:58Z</time>
      </trkpt>
      <trkpt lat="44.18461" lon="4.25907">
        <ele>225.57</ele>
        <time>2012-03-18T16:27:06Z</time>
      </trkpt>
      <trkpt lat="44.18462" lon="4.25896">
        <ele>224.61</ele>
        <time>2012-03-18T16:27:16Z</time>
      </trkpt>
      <trkpt lat="44.18461" lon="4.25895">
        <ele>224.61</ele>
        <time>2012-03-18T16:27:34Z</time>
      </trkpt>
      <trkpt lat="44.18461" lon="4.25894">
        <ele>225.09</ele>
        <time>2012-03-18T16:27:40Z</time>
      </trkpt>
      <trkpt lat="44.1846" lon="4.25886">
        <ele>223.64</ele>
        <time>2012-03-18T16:27:45Z</time>
      </trkpt>
      <trkpt lat="44.18459" lon="4.25878">
        <ele>222.68</ele>
        <time>2012-03-18T16:27:49Z</time>
      </trkpt>
      <trkpt lat="44.18457" lon="4.25872">
        <ele>222.2</ele>
        <time>2012-03-18T16:27:52Z</time>
      </trkpt>
      <trkpt lat="44.18456" lon="4.25865">
        <ele>221.72</ele>
        <time>2012-03-18T16:27:56Z</time>
      </trkpt>
      <trkpt lat="44.18454" lon="4.25844">
        <ele>219.32</ele>
        <time>2012-03-18T16:28:06Z</time>
      </trkpt>
      <trkpt lat="44.18452" lon="4.25835">
        <ele>218.84</ele>
        <time>2012-03-18T16:28:10Z</time>
      </trkpt>
      <trkpt lat="44.18453" lon="4.25819">
        <ele>218.36</ele>
        <time>2012-03-18T16:28:16Z</time>
      </trkpt>
      <trkpt lat="44.18452" lon="4.25814">
        <ele>218.84</ele>
        <time>2012-03-18T16:28:18Z</time>
      </trkpt>
      <trkpt lat="44.18447" lon="4.25806">
        <ele>217.88</ele>
        <time>2012-03-18T16:28:23Z</time>
      </trkpt>
      <trkpt lat="44.18448" lon="4.25788">
        <ele>217.88</ele>
        <time>2012-03-18T16:28:31Z</time>
      </trkpt>
      <trkpt lat="44.18446" lon="4.2578">
        <ele>218.84</ele>
        <time>2012-03-18T16:28:35Z</time>
      </trkpt>
      <trkpt lat="44.18447" lon="4.25762">
        <ele>218.36</ele>
        <time>2012-03-18T16:28:44Z</time>
      </trkpt>
      <trkpt lat="44.18453" lon="4.2574">
        <ele>217.4</ele>
        <time>2012-03-18T16:28:56Z</time>
      </trkpt>
      <trkpt lat="44.18455" lon="4.25737">
        <ele>217.4</ele>
        <time>2012-03-18T16:28:58Z</time>
      </trkpt>
      <trkpt lat="44.18459" lon="4.25728">
        <ele>216.43</ele>
        <time>2012-03-18T16:29:06Z</time>
      </trkpt>
      <trkpt lat="44.18466" lon="4.25724">
        <ele>217.4</ele>
        <time>2012-03-18T16:29:11Z</time>
      </trkpt>
      <trkpt lat="44.18483" lon="4.25713">
        <ele>216.43</ele>
        <time>2012-03-18T16:29:24Z</time>
      </trkpt>
      <trkpt lat="44.18488" lon="4.2571">
        <ele>215.95</ele>
        <time>2012-03-18T16:29:28Z</time>
      </trkpt>
      <trkpt lat="44.18502" lon="4.25704">
        <ele>214.99</ele>
        <time>2012-03-18T16:29:39Z</time>
      </trkpt>
      <trkpt lat="44.18506" lon="4.25699">
        <ele>215.47</ele>
        <time>2012-03-18T16:29:43Z</time>
      </trkpt>
      <trkpt lat="44.18515" lon="4.25685">
        <ele>214.99</ele>
        <time>2012-03-18T16:29:52Z</time>
      </trkpt>
      <trkpt lat="44.18517" lon="4.25682">
        <ele>214.03</ele>
        <time>2012-03-18T16:29:54Z</time>
      </trkpt>
      <trkpt lat="44.18521" lon="4.25677">
        <ele>214.03</ele>
        <time>2012-03-18T16:29:58Z</time>
      </trkpt>
      <trkpt lat="44.18522" lon="4.25676">
        <ele>213.55</ele>
        <time>2012-03-18T16:30:00Z</time>
      </trkpt>
      <trkpt lat="44.18526" lon="4.25669">
        <ele>214.03</ele>
        <time>2012-03-18T16:30:06Z</time>
      </trkpt>
      <trkpt lat="44.18529" lon="4.25668">
        <ele>213.55</ele>
        <time>2012-03-18T16:30:08Z</time>
      </trkpt>
      <trkpt lat="44.18544" lon="4.25655">
        <ele>213.07</ele>
        <time>2012-03-18T16:30:20Z</time>
      </trkpt>
      <trkpt lat="44.18548" lon="4.25647">
        <ele>212.11</ele>
        <time>2012-03-18T16:30:26Z</time>
      </trkpt>
      <trkpt lat="44.18554" lon="4.25638">
        <ele>211.63</ele>
        <time>2012-03-18T16:30:33Z</time>
      </trkpt>
      <trkpt lat="44.18559" lon="4.25633">
        <ele>211.15</ele>
        <time>2012-03-18T16:30:38Z</time>
      </trkpt>
      <trkpt lat="44.18562" lon="4.25629">
        <ele>210.67</ele>
        <time>2012-03-18T16:30:42Z</time>
      </trkpt>
      <trkpt lat="44.18571" lon="4.2561">
        <ele>209.22</ele>
        <time>2012-03-18T16:30:55Z</time>
      </trkpt>
      <trkpt lat="44.18572" lon="4.25607">
        <ele>208.74</ele>
        <time>2012-03-18T16:30:57Z</time>
      </trkpt>
      <trkpt lat="44.18571" lon="4.256">
        <ele>209.22</ele>
        <time>2012-03-18T16:31:09Z</time>
      </trkpt>
      <trkpt lat="44.18571" lon="4.256">
        <ele>209.7</ele>
        <time>2012-03-18T16:31:28Z</time>
      </trkpt>
      <trkpt lat="44.18571" lon="4.25599">
        <ele>209.22</ele>
        <time>2012-03-18T16:31:41Z</time>
      </trkpt>
      <trkpt lat="44.18572" lon="4.25593">
        <ele>209.22</ele>
        <time>2012-03-18T16:31:48Z</time>
      </trkpt>
      <trkpt lat="44.1857" lon="4.25577">
        <ele>209.22</ele>
        <time>2012-03-18T16:31:59Z</time>
      </trkpt>
      <trkpt lat="44.18569" lon="4.25565">
        <ele>209.22</ele>
        <time>2012-03-18T16:32:08Z</time>
      </trkpt>
      <trkpt lat="44.18568" lon="4.25553">
        <ele>209.22</ele>
        <time>2012-03-18T16:32:18Z</time>
      </trkpt>
      <trkpt lat="44.18568" lon="4.25552">
        <ele>209.22</ele>
        <time>2012-03-18T16:32:21Z</time>
      </trkpt>
      <trkpt lat="44.18568" lon="4.25545">
        <ele>209.22</ele>
        <time>2012-03-18T16:32:27Z</time>
      </trkpt>
      <trkpt lat="44.18566" lon="4.25537">
        <ele>209.22</ele>
        <time>2012-03-18T16:32:32Z</time>
      </trkpt>
      <trkpt lat="44.18562" lon="4.25525">
        <ele>208.74</ele>
        <time>2012-03-18T16:32:45Z</time>
      </trkpt>
      <trkpt lat="44.18559" lon="4.2552">
        <ele>208.74</ele>
        <time>2012-03-18T16:32:53Z</time>
      </trkpt>
      <trkpt lat="44.18559" lon="4.25514">
        <ele>209.22</ele>
        <time>2012-03-18T16:33:01Z</time>
      </trkpt>
      <trkpt lat="44.18559" lon="4.25514">
        <ele>208.26</ele>
        <time>2012-03-18T16:33:15Z</time>
      </trkpt>
      <trkpt lat="44.18558" lon="4.25511">
        <ele>209.22</ele>
        <time>2012-03-18T16:33:25Z</time>
      </trkpt>
      <trkpt lat="44.18558" lon="4.2551">
        <ele>209.22</ele>
        <time>2012-03-18T16:33:47Z</time>
      </trkpt>
      <trkpt lat="44.18555" lon="4.25506">
        <ele>208.74</ele>
        <time>2012-03-18T16:34:06Z</time>
      </trkpt>
      <trkpt lat="44.18555" lon="4.25506">
        <ele>209.22</ele>
        <time>2012-03-18T16:34:24Z</time>
      </trkpt>
      <trkpt lat="44.18552" lon="4.25499">
        <ele>209.22</ele>
        <time>2012-03-18T16:34:41Z</time>
      </trkpt>
      <trkpt lat="44.18549" lon="4.25488">
        <ele>208.26</ele>
        <time>2012-03-18T16:34:48Z</time>
      </trkpt>
      <trkpt lat="44.18546" lon="4.25474">
        <ele>208.26</ele>
        <time>2012-03-18T16:35:00Z</time>
      </trkpt>
      <trkpt lat="44.18545" lon="4.25472">
        <ele>208.26</ele>
        <time>2012-03-18T16:35:17Z</time>
      </trkpt>
      <trkpt lat="44.18546" lon="4.25473">
        <ele>208.26</ele>
        <time>2012-03-18T16:35:28Z</time>
      </trkpt>
      <trkpt lat="44.18539" lon="4.25464">
        <ele>208.74</ele>
        <time>2012-03-18T16:35:38Z</time>
      </trkpt>
      <trkpt lat="44.18539" lon="4.25463">
        <ele>208.74</ele>
        <time>2012-03-18T16:35:42Z</time>
      </trkpt>
      <trkpt lat="44.18542" lon="4.25467">
        <ele>208.74</ele>
        <time>2012-03-18T16:35:48Z</time>
      </trkpt>
      <trkpt lat="44.18533" lon="4.25454">
        <ele>208.74</ele>
        <time>2012-03-18T16:36:00Z</time>
      </trkpt>
      <trkpt lat="44.18526" lon="4.25444">
        <ele>209.22</ele>
        <time>2012-03-18T16:36:09Z</time>
      </trkpt>
      <trkpt lat="44.18525" lon="4.25442">
        <ele>208.74</ele>
        <time>2012-03-18T16:36:10Z</time>
      </trkpt>
      <trkpt lat="44.18522" lon="4.25436">
        <ele>208.26</ele>
        <time>2012-03-18T16:36:24Z</time>
      </trkpt>
      <trkpt lat="44.18522" lon="4.25436">
        <ele>208.74</ele>
        <time>2012-03-18T16:36:40Z</time>
      </trkpt>
      <trkpt lat="44.18518" lon="4.25425">
        <ele>208.74</ele>
        <time>2012-03-18T16:36:57Z</time>
      </trkpt>
      <trkpt lat="44.18517" lon="4.25417">
        <ele>208.26</ele>
        <time>2012-03-18T16:37:02Z</time>
      </trkpt>
      <trkpt lat="44.18524" lon="4.25404">
        <ele>208.26</ele>
        <time>2012-03-18T16:37:10Z</time>
      </trkpt>
      <trkpt lat="44.18528" lon="4.25387">
        <ele>207.78</ele>
        <time>2012-03-18T16:37:24Z</time>
      </trkpt>
      <trkpt lat="44.18531" lon="4.25384">
        <ele>208.74</ele>
        <time>2012-03-18T16:37:27Z</time>
      </trkpt>
      <trkpt lat="44.18539" lon="4.25371">
        <ele>208.74</ele>
        <time>2012-03-18T16:37:37Z</time>
      </trkpt>
      <trkpt lat="44.18544" lon="4.25366">
        <ele>208.74</ele>
        <time>2012-03-18T16:37:42Z</time>
      </trkpt>
      <trkpt lat="44.18558" lon="4.25351">
        <ele>209.22</ele>
        <time>2012-03-18T16:37:54Z</time>
      </trkpt>
      <trkpt lat="44.18569" lon="4.25333">
        <ele>209.22</ele>
        <time>2012-03-18T16:38:09Z</time>
      </trkpt>
      <trkpt lat="44.1857" lon="4.25332">
        <ele>208.74</ele>
        <time>2012-03-18T16:38:10Z</time>
      </trkpt>
      <trkpt lat="44.18572" lon="4.25326">
        <ele>209.22</ele>
        <time>2012-03-18T16:38:15Z</time>
      </trkpt>
      <trkpt lat="44.18584" lon="4.25304">
        <ele>208.26</ele>
        <time>2012-03-18T16:38:29Z</time>
      </trkpt>
      <trkpt lat="44.1859" lon="4.25284">
        <ele>208.74</ele>
        <time>2012-03-18T16:38:43Z</time>
      </trkpt>
      <trkpt lat="44.18596" lon="4.25275">
        <ele>208.26</ele>
        <time>2012-03-18T16:38:50Z</time>
      </trkpt>
      <trkpt lat="44.18599" lon="4.2527">
        <ele>208.26</ele>
        <time>2012-03-18T16:38:54Z</time>
      </trkpt>
      <trkpt lat="44.18604" lon="4.25263">
        <ele>208.74</ele>
        <time>2012-03-18T16:39:00Z</time>
      </trkpt>
      <trkpt lat="44.1861" lon="4.25253">
        <ele>208.26</ele>
        <time>2012-03-18T16:39:07Z</time>
      </trkpt>
      <trkpt lat="44.18612" lon="4.25248">
        <ele>208.74</ele>
        <time>2012-03-18T16:39:11Z</time>
      </trkpt>
      <trkpt lat="44.18613" lon="4.2524">
        <ele>208.26</ele>
        <time>2012-03-18T16:39:16Z</time>
      </trkpt>
      <trkpt lat="44.18612" lon="4.25222">
        <ele>209.22</ele>
        <time>2012-03-18T16:39:26Z</time>
      </trkpt>
      <trkpt lat="44.18609" lon="4.25213">
        <ele>209.22</ele>
        <time>2012-03-18T16:39:34Z</time>
      </trkpt>
      <trkpt lat="44.18608" lon="4.25207">
        <ele>208.74</ele>
        <time>2012-03-18T16:39:38Z</time>
      </trkpt>
      <trkpt lat="44.18606" lon="4.25199">
        <ele>209.7</ele>
        <time>2012-03-18T16:39:44Z</time>
      </trkpt>
      <trkpt lat="44.186" lon="4.25178">
        <ele>209.7</ele>
        <time>2012-03-18T16:39:57Z</time>
      </trkpt>
      <trkpt lat="44.18599" lon="4.25169">
        <ele>209.22</ele>
        <time>2012-03-18T16:40:02Z</time>
      </trkpt>
      <trkpt lat="44.18601" lon="4.25159">
        <ele>209.22</ele>
        <time>2012-03-18T16:40:08Z</time>
      </trkpt>
      <trkpt lat="44.18607" lon="4.25153">
        <ele>208.74</ele>
        <time>2012-03-18T16:40:14Z</time>
      </trkpt>
      <trkpt lat="44.18616" lon="4.25148">
        <ele>208.26</ele>
        <time>2012-03-18T16:40:30Z</time>
      </trkpt>
      <trkpt lat="44.18616" lon="4.25148">
        <ele>208.26</ele>
        <time>2012-03-18T16:40:53Z</time>
      </trkpt>
      <trkpt lat="44.18622" lon="4.2514">
        <ele>207.78</ele>
        <time>2012-03-18T16:41:01Z</time>
      </trkpt>
      <trkpt lat="44.1864" lon="4.25125">
        <ele>205.38</ele>
        <time>2012-03-18T16:41:10Z</time>
      </trkpt>
      <trkpt lat="44.18657" lon="4.25118">
        <ele>205.38</ele>
        <time>2012-03-18T16:41:17Z</time>
      </trkpt>
      <trkpt lat="44.1867" lon="4.25108">
        <ele>204.9</ele>
        <time>2012-03-18T16:41:25Z</time>
      </trkpt>
      <trkpt lat="44.18672" lon="4.25106">
        <ele>204.42</ele>
        <time>2012-03-18T16:41:35Z</time>
      </trkpt>
      <trkpt lat="44.18668" lon="4.25106">
        <ele>203.94</ele>
        <time>2012-03-18T16:41:39Z</time>
      </trkpt>
      <trkpt lat="44.18678" lon="4.25105">
        <ele>203.46</ele>
        <time>2012-03-18T16:41:52Z</time>
      </trkpt>
      <trkpt lat="44.1869" lon="4.25102">
        <ele>204.42</ele>
        <time>2012-03-18T16:42:02Z</time>
      </trkpt>
      <trkpt lat="44.18709" lon="4.25109">
        <ele>202.98</ele>
        <time>2012-03-18T16:42:18Z</time>
      </trkpt>
      <trkpt lat="44.18718" lon="4.25118">
        <ele>202.98</ele>
        <time>2012-03-18T16:42:28Z</time>
      </trkpt>
      <trkpt lat="44.18728" lon="4.25143">
        <ele>202.01</ele>
        <time>2012-03-18T16:42:44Z</time>
      </trkpt>
      <trkpt lat="44.1873" lon="4.25153">
        <ele>203.46</ele>
        <time>2012-03-18T16:42:51Z</time>
      </trkpt>
      <trkpt lat="44.18733" lon="4.25171">
        <ele>204.9</ele>
        <time>2012-03-18T16:43:03Z</time>
      </trkpt>
      <trkpt lat="44.18736" lon="4.25187">
        <ele>204.9</ele>
        <time>2012-03-18T16:43:12Z</time>
      </trkpt>
      <trkpt lat="44.18739" lon="4.25203">
        <ele>206.34</ele>
        <time>2012-03-18T16:43:22Z</time>
      </trkpt>
      <trkpt lat="44.18745" lon="4.25231">
        <ele>206.34</ele>
        <time>2012-03-18T16:43:38Z</time>
      </trkpt>
      <trkpt lat="44.18745" lon="4.25249">
        <ele>206.82</ele>
        <time>2012-03-18T16:43:51Z</time>
      </trkpt>
      <trkpt lat="44.18746" lon="4.25268">
        <ele>207.78</ele>
        <time>2012-03-18T16:44:04Z</time>
      </trkpt>
      <trkpt lat="44.18745" lon="4.25277">
        <ele>208.26</ele>
        <time>2012-03-18T16:44:15Z</time>
      </trkpt>
      <trkpt lat="44.18747" lon="4.25288">
        <ele>209.7</ele>
        <time>2012-03-18T16:44:26Z</time>
      </trkpt>
      <trkpt lat="44.18748" lon="4.25289">
        <ele>209.22</ele>
        <time>2012-03-18T16:44:29Z</time>
      </trkpt>
      <trkpt lat="44.18748" lon="4.25291">
        <ele>209.7</ele>
        <time>2012-03-18T16:44:31Z</time>
      </trkpt>
      <trkpt lat="44.18745" lon="4.2531">
        <ele>210.67</ele>
        <time>2012-03-18T16:44:43Z</time>
      </trkpt>
      <trkpt lat="44.18746" lon="4.25324">
        <ele>212.11</ele>
        <time>2012-03-18T16:44:55Z</time>
      </trkpt>
      <trkpt lat="44.18751" lon="4.25336">
        <ele>213.55</ele>
        <time>2012-03-18T16:45:05Z</time>
      </trkpt>
      <trkpt lat="44.18752" lon="4.25339">
        <ele>213.55</ele>
        <time>2012-03-18T16:45:08Z</time>
      </trkpt>
      <trkpt lat="44.18764" lon="4.25355">
        <ele>214.03</ele>
        <time>2012-03-18T16:45:22Z</time>
      </trkpt>
      <trkpt lat="44.18776" lon="4.25374">
        <ele>213.07</ele>
        <time>2012-03-18T16:45:35Z</time>
      </trkpt>
      <trkpt lat="44.18781" lon="4.25384">
        <ele>211.15</ele>
        <time>2012-03-18T16:45:47Z</time>
      </trkpt>
      <trkpt lat="44.18783" lon="4.25392">
        <ele>209.7</ele>
        <time>2012-03-18T16:45:52Z</time>
      </trkpt>
      <trkpt lat="44.18787" lon="4.25401">
        <ele>209.22</ele>
        <time>2012-03-18T16:45:58Z</time>
      </trkpt>
      <trkpt lat="44.18788" lon="4.25418">
        <ele>208.26</ele>
        <time>2012-03-18T16:46:09Z</time>
      </trkpt>
      <trkpt lat="44.18794" lon="4.25433">
        <ele>207.3</ele>
        <time>2012-03-18T16:46:16Z</time>
      </trkpt>
      <trkpt lat="44.18804" lon="4.25449">
        <ele>206.34</ele>
        <time>2012-03-18T16:46:30Z</time>
      </trkpt>
      <trkpt lat="44.18813" lon="4.25463">
        <ele>205.38</ele>
        <time>2012-03-18T16:46:40Z</time>
      </trkpt>
      <trkpt lat="44.18818" lon="4.2547">
        <ele>204.9</ele>
        <time>2012-03-18T16:46:49Z</time>
      </trkpt>
      <trkpt lat="44.18831" lon="4.25486">
        <ele>202.98</ele>
        <time>2012-03-18T16:47:04Z</time>
      </trkpt>
      <trkpt lat="44.18832" lon="4.25488">
        <ele>202.98</ele>
        <time>2012-03-18T16:47:06Z</time>
      </trkpt>
      <trkpt lat="44.18837" lon="4.25496">
        <ele>202.49</ele>
        <time>2012-03-18T16:47:12Z</time>
      </trkpt>
      <trkpt lat="44.18846" lon="4.25511">
        <ele>200.57</ele>
        <time>2012-03-18T16:47:25Z</time>
      </trkpt>
      <trkpt lat="44.18846" lon="4.25511">
        <ele>200.57</ele>
        <time>2012-03-18T16:47:27Z</time>
      </trkpt>
      <trkpt lat="44.18855" lon="4.25525">
        <ele>199.13</ele>
        <time>2012-03-18T16:47:38Z</time>
      </trkpt>
      <trkpt lat="44.18866" lon="4.25542">
        <ele>197.69</ele>
        <time>2012-03-18T16:47:51Z</time>
      </trkpt>
      <trkpt lat="44.18876" lon="4.25561">
        <ele>196.25</ele>
        <time>2012-03-18T16:48:03Z</time>
      </trkpt>
      <trkpt lat="44.18882" lon="4.25567">
        <ele>194.32</ele>
        <time>2012-03-18T16:48:11Z</time>
      </trkpt>
      <trkpt lat="44.1889" lon="4.25576">
        <ele>193.36</ele>
        <time>2012-03-18T16:48:24Z</time>
      </trkpt>
      <trkpt lat="44.18893" lon="4.25581">
        <ele>191.44</ele>
        <time>2012-03-18T16:48:35Z</time>
      </trkpt>
      <trkpt lat="44.18901" lon="4.25588">
        <ele>190</ele>
        <time>2012-03-18T16:48:47Z</time>
      </trkpt>
      <trkpt lat="44.18902" lon="4.25589">
        <ele>189.52</ele>
        <time>2012-03-18T16:48:49Z</time>
      </trkpt>
      <trkpt lat="44.18918" lon="4.25599">
        <ele>186.63</ele>
        <time>2012-03-18T16:49:06Z</time>
      </trkpt>
      <trkpt lat="44.18922" lon="4.25602">
        <ele>184.71</ele>
        <time>2012-03-18T16:49:12Z</time>
      </trkpt>
      <trkpt lat="44.18935" lon="4.25611">
        <ele>182.31</ele>
        <time>2012-03-18T16:49:26Z</time>
      </trkpt>
      <trkpt lat="44.18952" lon="4.25622">
        <ele>179.9</ele>
        <time>2012-03-18T16:49:41Z</time>
      </trkpt>
      <trkpt lat="44.1896" lon="4.25628">
        <ele>177.5</ele>
        <time>2012-03-18T16:49:50Z</time>
      </trkpt>
      <trkpt lat="44.18962" lon="4.25629">
        <ele>177.98</ele>
        <time>2012-03-18T16:49:52Z</time>
      </trkpt>
      <trkpt lat="44.18979" lon="4.25637">
        <ele>174.62</ele>
        <time>2012-03-18T16:50:08Z</time>
      </trkpt>
      <trkpt lat="44.18984" lon="4.2564">
        <ele>173.17</ele>
        <time>2012-03-18T16:50:13Z</time>
      </trkpt>
      <trkpt lat="44.18998" lon="4.25646">
        <ele>170.77</ele>
        <time>2012-03-18T16:50:26Z</time>
      </trkpt>
      <trkpt lat="44.19012" lon="4.25651">
        <ele>167.41</ele>
        <time>2012-03-18T16:50:39Z</time>
      </trkpt>
      <trkpt lat="44.19027" lon="4.25652">
        <ele>164.04</ele>
        <time>2012-03-18T16:50:51Z</time>
      </trkpt>
      <trkpt lat="44.19028" lon="4.25651">
        <ele>165</ele>
        <time>2012-03-18T16:50:53Z</time>
      </trkpt>
      <trkpt lat="44.1903" lon="4.25651">
        <ele>164.04</ele>
        <time>2012-03-18T16:50:55Z</time>
      </trkpt>
      <trkpt lat="44.1904" lon="4.25653">
        <ele>162.6</ele>
        <time>2012-03-18T16:51:03Z</time>
      </trkpt>
      <trkpt lat="44.19059" lon="4.25657">
        <ele>158.75</ele>
        <time>2012-03-18T16:51:18Z</time>
      </trkpt>
      <trkpt lat="44.19059" lon="4.25657">
        <ele>159.24</ele>
        <time>2012-03-18T16:51:19Z</time>
      </trkpt>
      <trkpt lat="44.1906" lon="4.25659">
        <ele>158.75</ele>
        <time>2012-03-18T16:51:21Z</time>
      </trkpt>
      <trkpt lat="44.19073" lon="4.25664">
        <ele>157.31</ele>
        <time>2012-03-18T16:51:31Z</time>
      </trkpt>
      <trkpt lat="44.19092" lon="4.25666">
        <ele>153.95</ele>
        <time>2012-03-18T16:51:43Z</time>
      </trkpt>
      <trkpt lat="44.19106" lon="4.25677">
        <ele>150.58</ele>
        <time>2012-03-18T16:51:55Z</time>
      </trkpt>
      <trkpt lat="44.19106" lon="4.25678">
        <ele>151.06</ele>
        <time>2012-03-18T16:52:09Z</time>
      </trkpt>
      <trkpt lat="44.19107" lon="4.25679">
        <ele>150.58</ele>
        <time>2012-03-18T16:52:16Z</time>
      </trkpt>
      <trkpt lat="44.19107" lon="4.25687">
        <ele>150.1</ele>
        <time>2012-03-18T16:52:20Z</time>
      </trkpt>
      <trkpt lat="44.19096" lon="4.25707">
        <ele>147.22</ele>
        <time>2012-03-18T16:52:33Z</time>
      </trkpt>
      <trkpt lat="44.1909" lon="4.25713">
        <ele>145.78</ele>
        <time>2012-03-18T16:52:39Z</time>
      </trkpt>
      <trkpt lat="44.19079" lon="4.25716">
        <ele>145.3</ele>
        <time>2012-03-18T16:52:46Z</time>
      </trkpt>
      <trkpt lat="44.19074" lon="4.25719">
        <ele>144.82</ele>
        <time>2012-03-18T16:52:50Z</time>
      </trkpt>
      <trkpt lat="44.1908" lon="4.25732">
        <ele>142.41</ele>
        <time>2012-03-18T16:53:01Z</time>
      </trkpt>
      <trkpt lat="44.1908" lon="4.2573">
        <ele>142.89</ele>
        <time>2012-03-18T16:53:12Z</time>
      </trkpt>
      <trkpt lat="44.19081" lon="4.2573">
        <ele>142.41</ele>
        <time>2012-03-18T16:53:26Z</time>
      </trkpt>
      <trkpt lat="44.19083" lon="4.2573">
        <ele>142.89</ele>
        <time>2012-03-18T16:53:28Z</time>
      </trkpt>
      <trkpt lat="44.19088" lon="4.25725">
        <ele>142.89</ele>
        <time>2012-03-18T16:53:39Z</time>
      </trkpt>
      <trkpt lat="44.19088" lon="4.25724">
        <ele>141.93</ele>
        <time>2012-03-18T16:53:58Z</time>
      </trkpt>
      <trkpt lat="44.19102" lon="4.25725">
        <ele>141.45</ele>
        <time>2012-03-18T16:54:07Z</time>
      </trkpt>
      <trkpt lat="44.19112" lon="4.25727">
        <ele>140.97</ele>
        <time>2012-03-18T16:54:17Z</time>
      </trkpt>
      <trkpt lat="44.19121" lon="4.25722">
        <ele>140.49</ele>
        <time>2012-03-18T16:54:24Z</time>
      </trkpt>
      <trkpt lat="44.1914" lon="4.25709">
        <ele>139.53</ele>
        <time>2012-03-18T16:54:37Z</time>
      </trkpt>
      <trkpt lat="44.19142" lon="4.25709">
        <ele>139.53</ele>
        <time>2012-03-18T16:54:39Z</time>
      </trkpt>
      <trkpt lat="44.19153" lon="4.25724">
        <ele>138.09</ele>
        <time>2012-03-18T16:54:51Z</time>
      </trkpt>
      <trkpt lat="44.19156" lon="4.25734">
        <ele>138.09</ele>
        <time>2012-03-18T16:54:57Z</time>
      </trkpt>
      <trkpt lat="44.19157" lon="4.25741">
        <ele>138.57</ele>
        <time>2012-03-18T16:55:03Z</time>
      </trkpt>
      <trkpt lat="44.19161" lon="4.25744">
        <ele>139.05</ele>
        <time>2012-03-18T16:55:06Z</time>
      </trkpt>
      <trkpt lat="44.19172" lon="4.25752">
        <ele>140.01</ele>
        <time>2012-03-18T16:55:17Z</time>
      </trkpt>
      <trkpt lat="44.19176" lon="4.25751">
        <ele>140.97</ele>
        <time>2012-03-18T16:55:29Z</time>
      </trkpt>
      <trkpt lat="44.19177" lon="4.25751">
        <ele>140.97</ele>
        <time>2012-03-18T16:55:47Z</time>
      </trkpt>
      <trkpt lat="44.19176" lon="4.25752">
        <ele>141.93</ele>
        <time>2012-03-18T16:56:02Z</time>
      </trkpt>
      <trkpt lat="44.19176" lon="4.25752">
        <ele>138.09</ele>
        <time>2012-03-18T16:56:07Z</time>
      </trkpt>
      <trkpt lat="44.19176" lon="4.25752">
        <ele>142.41</ele>
        <time>2012-03-18T16:56:08Z</time>
      </trkpt>
      <trkpt lat="44.19176" lon="4.25752">
        <ele>140.97</ele>
        <time>2012-03-18T16:56:29Z</time>
      </trkpt>
      <trkpt lat="44.19176" lon="4.25752">
        <ele>141.45</ele>
        <time>2012-03-18T16:56:49Z</time>
      </trkpt>
      <trkpt lat="44.19177" lon="4.25751">
        <ele>140.97</ele>
        <time>2012-03-18T16:56:50Z</time>
      </trkpt>
      <trkpt lat="44.19178" lon="4.25748">
        <ele>140.97</ele>
        <time>2012-03-18T16:56:53Z</time>
      </trkpt>
      <trkpt lat="44.19184" lon="4.25719">
        <ele>140.01</ele>
        <time>2012-03-18T16:57:09Z</time>
      </trkpt>
      <trkpt lat="44.19195" lon="4.25695">
        <ele>140.49</ele>
        <time>2012-03-18T16:57:24Z</time>
      </trkpt>
      <trkpt lat="44.19197" lon="4.25693">
        <ele>141.93</ele>
        <time>2012-03-18T16:57:29Z</time>
      </trkpt>
      <trkpt lat="44.192" lon="4.25688">
        <ele>140.97</ele>
        <time>2012-03-18T16:57:33Z</time>
      </trkpt>
      <trkpt lat="44.19217" lon="4.25663">
        <ele>140.49</ele>
        <time>2012-03-18T16:57:50Z</time>
      </trkpt>
      <trkpt lat="44.19236" lon="4.25653">
        <ele>141.45</ele>
        <time>2012-03-18T16:58:03Z</time>
      </trkpt>
      <trkpt lat="44.19247" lon="4.2564">
        <ele>140.97</ele>
        <time>2012-03-18T16:58:14Z</time>
      </trkpt>
      <trkpt lat="44.19249" lon="4.25625">
        <ele>140.97</ele>
        <time>2012-03-18T16:58:22Z</time>
      </trkpt>
      <trkpt lat="44.19251" lon="4.25618">
        <ele>140.49</ele>
        <time>2012-03-18T16:58:26Z</time>
      </trkpt>
      <trkpt lat="44.19266" lon="4.25591">
        <ele>140.01</ele>
        <time>2012-03-18T16:58:41Z</time>
      </trkpt>
      <trkpt lat="44.19267" lon="4.25588">
        <ele>140.01</ele>
        <time>2012-03-18T16:58:43Z</time>
      </trkpt>
      <trkpt lat="44.19283" lon="4.25566">
        <ele>139.53</ele>
        <time>2012-03-18T16:58:57Z</time>
      </trkpt>
      <trkpt lat="44.19297" lon="4.25551">
        <ele>139.05</ele>
        <time>2012-03-18T16:59:10Z</time>
      </trkpt>
      <trkpt lat="44.19302" lon="4.25545">
        <ele>139.05</ele>
        <time>2012-03-18T16:59:21Z</time>
      </trkpt>
      <trkpt lat="44.19302" lon="4.25545">
        <ele>138.57</ele>
        <time>2012-03-18T16:59:45Z</time>
      </trkpt>
      <trkpt lat="44.19304" lon="4.25544">
        <ele>138.57</ele>
        <time>2012-03-18T16:59:48Z</time>
      </trkpt>
      <trkpt lat="44.19306" lon="4.25543">
        <ele>138.09</ele>
        <time>2012-03-18T16:59:50Z</time>
      </trkpt>
      <trkpt lat="44.1932" lon="4.25531">
        <ele>137.61</ele>
        <time>2012-03-18T17:00:00Z</time>
      </trkpt>
      <trkpt lat="44.19337" lon="4.25516">
        <ele>137.61</ele>
        <time>2012-03-18T17:00:14Z</time>
      </trkpt>
      <trkpt lat="44.19355" lon="4.25505">
        <ele>137.13</ele>
        <time>2012-03-18T17:00:27Z</time>
      </trkpt>
      <trkpt lat="44.19376" lon="4.25492">
        <ele>136.64</ele>
        <time>2012-03-18T17:00:42Z</time>
      </trkpt>
      <trkpt lat="44.19384" lon="4.25491">
        <ele>135.68</ele>
        <time>2012-03-18T17:00:47Z</time>
      </trkpt>
      <trkpt lat="44.19389" lon="4.25489">
        <ele>135.68</ele>
        <time>2012-03-18T17:00:51Z</time>
      </trkpt>
      <trkpt lat="44.19413" lon="4.25487">
        <ele>135.2</ele>
        <time>2012-03-18T17:01:06Z</time>
      </trkpt>
      <trkpt lat="44.19433" lon="4.25487">
        <ele>134.72</ele>
        <time>2012-03-18T17:01:20Z</time>
      </trkpt>
      <trkpt lat="44.19447" lon="4.2548">
        <ele>134.72</ele>
        <time>2012-03-18T17:01:31Z</time>
      </trkpt>
      <trkpt lat="44.19464" lon="4.25476">
        <ele>134.72</ele>
        <time>2012-03-18T17:01:42Z</time>
      </trkpt>
      <trkpt lat="44.1949" lon="4.25464">
        <ele>134.72</ele>
        <time>2012-03-18T17:01:59Z</time>
      </trkpt>
      <trkpt lat="44.19507" lon="4.25454">
        <ele>134.24</ele>
        <time>2012-03-18T17:02:12Z</time>
      </trkpt>
      <trkpt lat="44.19514" lon="4.2545">
        <ele>134.72</ele>
        <time>2012-03-18T17:02:19Z</time>
      </trkpt>
      <trkpt lat="44.19517" lon="4.25447">
        <ele>134.72</ele>
        <time>2012-03-18T17:02:21Z</time>
      </trkpt>
      <trkpt lat="44.19524" lon="4.25444">
        <ele>134.24</ele>
        <time>2012-03-18T17:02:25Z</time>
      </trkpt>
      <trkpt lat="44.19543" lon="4.2543">
        <ele>135.68</ele>
        <time>2012-03-18T17:02:38Z</time>
      </trkpt>
      <trkpt lat="44.19555" lon="4.25412">
        <ele>135.68</ele>
        <time>2012-03-18T17:02:50Z</time>
      </trkpt>
      <trkpt lat="44.19569" lon="4.25389">
        <ele>135.2</ele>
        <time>2012-03-18T17:03:05Z</time>
      </trkpt>
      <trkpt lat="44.19578" lon="4.25367">
        <ele>133.76</ele>
        <time>2012-03-18T17:03:18Z</time>
      </trkpt>
      <trkpt lat="44.19588" lon="4.25343">
        <ele>132.32</ele>
        <time>2012-03-18T17:03:31Z</time>
      </trkpt>
      <trkpt lat="44.19589" lon="4.25339">
        <ele>132.32</ele>
        <time>2012-03-18T17:03:33Z</time>
      </trkpt>
      <trkpt lat="44.19602" lon="4.25323">
        <ele>131.84</ele>
        <time>2012-03-18T17:03:45Z</time>
      </trkpt>
      <trkpt lat="44.19608" lon="4.25315">
        <ele>131.84</ele>
        <time>2012-03-18T17:03:51Z</time>
      </trkpt>
      <trkpt lat="44.19615" lon="4.25296">
        <ele>131.36</ele>
        <time>2012-03-18T17:04:01Z</time>
      </trkpt>
      <trkpt lat="44.19618" lon="4.25281">
        <ele>130.88</ele>
        <time>2012-03-18T17:04:08Z</time>
      </trkpt>
      <trkpt lat="44.19623" lon="4.25264">
        <ele>130.4</ele>
        <time>2012-03-18T17:04:16Z</time>
      </trkpt>
      <trkpt lat="44.19626" lon="4.25258">
        <ele>129.92</ele>
        <time>2012-03-18T17:04:20Z</time>
      </trkpt>
      <trkpt lat="44.19629" lon="4.2524">
        <ele>131.36</ele>
        <time>2012-03-18T17:04:31Z</time>
      </trkpt>
      <trkpt lat="44.19627" lon="4.25235">
        <ele>130.88</ele>
        <time>2012-03-18T17:04:34Z</time>
      </trkpt>
      <trkpt lat="44.19636" lon="4.25216">
        <ele>129.92</ele>
        <time>2012-03-18T17:04:44Z</time>
      </trkpt>
      <trkpt lat="44.19638" lon="4.25213">
        <ele>129.92</ele>
        <time>2012-03-18T17:04:46Z</time>
      </trkpt>
      <trkpt lat="44.1964" lon="4.25205">
        <ele>130.4</ele>
        <time>2012-03-18T17:04:51Z</time>
      </trkpt>
      <trkpt lat="44.1964" lon="4.252">
        <ele>129.92</ele>
        <time>2012-03-18T17:04:54Z</time>
      </trkpt>
      <trkpt lat="44.19647" lon="4.25181">
        <ele>129.43</ele>
        <time>2012-03-18T17:05:03Z</time>
      </trkpt>
      <trkpt lat="44.1965" lon="4.25158">
        <ele>128.95</ele>
        <time>2012-03-18T17:05:14Z</time>
      </trkpt>
      <trkpt lat="44.19663" lon="4.25145">
        <ele>127.99</ele>
        <time>2012-03-18T17:05:25Z</time>
      </trkpt>
      <trkpt lat="44.19675" lon="4.25138">
        <ele>127.99</ele>
        <time>2012-03-18T17:05:35Z</time>
      </trkpt>
      <trkpt lat="44.19684" lon="4.25131">
        <ele>128.47</ele>
        <time>2012-03-18T17:05:45Z</time>
      </trkpt>
      <trkpt lat="44.19698" lon="4.25123">
        <ele>127.99</ele>
        <time>2012-03-18T17:05:56Z</time>
      </trkpt>
      <trkpt lat="44.1971" lon="4.25108">
        <ele>127.03</ele>
        <time>2012-03-18T17:06:06Z</time>
      </trkpt>
      <trkpt lat="44.19713" lon="4.25103">
        <ele>127.99</ele>
        <time>2012-03-18T17:06:09Z</time>
      </trkpt>
      <trkpt lat="44.19718" lon="4.25096">
        <ele>127.99</ele>
        <time>2012-03-18T17:06:16Z</time>
      </trkpt>
      <trkpt lat="44.19723" lon="4.25092">
        <ele>127.51</ele>
        <time>2012-03-18T17:06:20Z</time>
      </trkpt>
      <trkpt lat="44.19746" lon="4.2508">
        <ele>127.51</ele>
        <time>2012-03-18T17:06:31Z</time>
      </trkpt>
      <trkpt lat="44.19753" lon="4.25077">
        <ele>127.51</ele>
        <time>2012-03-18T17:06:36Z</time>
      </trkpt>
      <trkpt lat="44.19763" lon="4.25076">
        <ele>127.51</ele>
        <time>2012-03-18T17:06:42Z</time>
      </trkpt>
      <trkpt lat="44.19777" lon="4.25073">
        <ele>127.51</ele>
        <time>2012-03-18T17:06:51Z</time>
      </trkpt>
      <trkpt lat="44.19783" lon="4.25068">
        <ele>127.03</ele>
        <time>2012-03-18T17:06:55Z</time>
      </trkpt>
      <trkpt lat="44.19789" lon="4.2506">
        <ele>126.07</ele>
        <time>2012-03-18T17:07:02Z</time>
      </trkpt>
      <trkpt lat="44.19804" lon="4.25037">
        <ele>125.11</ele>
        <time>2012-03-18T17:07:15Z</time>
      </trkpt>
      <trkpt lat="44.19807" lon="4.25032">
        <ele>124.63</ele>
        <time>2012-03-18T17:07:19Z</time>
      </trkpt>
      <trkpt lat="44.19818" lon="4.2501">
        <ele>124.15</ele>
        <time>2012-03-18T17:07:32Z</time>
      </trkpt>
      <trkpt lat="44.19826" lon="4.24992">
        <ele>124.15</ele>
        <time>2012-03-18T17:07:42Z</time>
      </trkpt>
      <trkpt lat="44.19828" lon="4.24989">
        <ele>123.67</ele>
        <time>2012-03-18T17:07:44Z</time>
      </trkpt>
      <trkpt lat="44.19831" lon="4.24963">
        <ele>123.67</ele>
        <time>2012-03-18T17:07:56Z</time>
      </trkpt>
      <trkpt lat="44.19831" lon="4.24957">
        <ele>124.15</ele>
        <time>2012-03-18T17:08:01Z</time>
      </trkpt>
      <trkpt lat="44.19833" lon="4.24949">
        <ele>123.67</ele>
        <time>2012-03-18T17:08:08Z</time>
      </trkpt>
      <trkpt lat="44.19835" lon="4.24935">
        <ele>123.67</ele>
        <time>2012-03-18T17:08:14Z</time>
      </trkpt>
      <trkpt lat="44.1984" lon="4.24926">
        <ele>123.67</ele>
        <time>2012-03-18T17:08:18Z</time>
      </trkpt>
      <trkpt lat="44.19842" lon="4.24914">
        <ele>123.19</ele>
        <time>2012-03-18T17:08:25Z</time>
      </trkpt>
      <trkpt lat="44.19846" lon="4.24902">
        <ele>123.67</ele>
        <time>2012-03-18T17:08:31Z</time>
      </trkpt>
      <trkpt lat="44.19848" lon="4.24898">
        <ele>123.19</ele>
        <time>2012-03-18T17:08:34Z</time>
      </trkpt>
      <trkpt lat="44.19848" lon="4.24895">
        <ele>123.19</ele>
        <time>2012-03-18T17:08:36Z</time>
      </trkpt>
      <trkpt lat="44.19857" lon="4.24877">
        <ele>123.19</ele>
        <time>2012-03-18T17:08:46Z</time>
      </trkpt>
      <trkpt lat="44.19869" lon="4.2486">
        <ele>123.67</ele>
        <time>2012-03-18T17:08:57Z</time>
      </trkpt>
      <trkpt lat="44.19879" lon="4.24842">
        <ele>122.22</ele>
        <time>2012-03-18T17:09:07Z</time>
      </trkpt>
      <trkpt lat="44.19886" lon="4.24833">
        <ele>123.19</ele>
        <time>2012-03-18T17:09:13Z</time>
      </trkpt>
      <trkpt lat="44.19901" lon="4.24815">
        <ele>122.71</ele>
        <time>2012-03-18T17:09:27Z</time>
      </trkpt>
      <trkpt lat="44.19915" lon="4.24796">
        <ele>122.71</ele>
        <time>2012-03-18T17:09:42Z</time>
      </trkpt>
      <trkpt lat="44.19915" lon="4.24795">
        <ele>122.71</ele>
        <time>2012-03-18T17:10:01Z</time>
      </trkpt>
    </trkseg>
  </trk>
</gpx>